Wetterdaten: Donnerstag, 28.05.2015
Datum Zeit Temp. Aussen +5cm Feuchte Auss BlattFeu 1 Luftdruck Regen Sonnenschein Regendauer Solar Windben
28.05.2015 00:00 13,5 C 11,7 C 66 % 0 lf 1017,1 hPa 0,0 l/m 0 min 0 min 0 W/m 14,6 km/h (3 Bft)
28.05.2015 00:02 13,5 C 11,7 C 66 % 0 lf 1017,1 hPa 0,0 l/m 0 min 0 min 0 W/m 14,6 km/h (3 Bft)
28.05.2015 00:05 13,4 C 11,7 C 67 % 0 lf 1017,0 hPa 0,0 l/m 0 min 0 min 0 W/m 16,7 km/h (3 Bft)
28.05.2015 00:06 13,4 C 11,7 C 67 % 0 lf 1017,0 hPa 0,0 l/m 0 min 0 min 0 W/m 8,4 km/h (2 Bft)
28.05.2015 00:08 13,4 C 11,7 C 67 % 0 lf 1017,0 hPa 0,0 l/m 0 min 0 min 0 W/m 14,6 km/h (3 Bft)
28.05.2015 00:10 13,4 C 11,7 C 67 % 0 lf 1017,0 hPa 0,0 l/m 0 min 0 min 0 W/m 18,8 km/h (3 Bft)
28.05.2015 00:12 13,4 C 11,7 C 67 % 0 lf 1017,0 hPa 0,0 l/m 0 min 0 min 0 W/m 14,6 km/h (3 Bft)
28.05.2015 00:14 13,3 C 11,7 C 67 % 0 lf 1017,0 hPa 0,0 l/m 0 min 0 min 0 W/m 12,6 km/h (3 Bft)
28.05.2015 00:16 13,3 C 11,7 C 67 % 0 lf 1017,0 hPa 0,0 l/m 0 min 0 min 0 W/m 14,6 km/h (3 Bft)
28.05.2015 00:18 13,3 C 11,7 C 68 % 0 lf 1017,1 hPa 0,0 l/m 0 min 0 min 0 W/m 14,6 km/h (3 Bft)
28.05.2015 00:20 13,3 C 11,7 C 68 % 0 lf 1017,0 hPa 0,0 l/m 0 min 0 min 0 W/m 14,6 km/h (3 Bft)
28.05.2015 00:22 13,3 C 11,7 C 68 % 0 lf 1017,0 hPa 0,0 l/m 0 min 0 min 0 W/m 14,6 km/h (3 Bft)
28.05.2015 00:24 13,3 C 11,7 C 68 % 0 lf 1016,9 hPa 0,0 l/m 0 min 0 min 0 W/m 14,6 km/h (3 Bft)
28.05.2015 00:26 13,2 C 11,7 C 68 % 0 lf 1017,0 hPa 0,0 l/m 0 min 0 min 0 W/m 10,5 km/h (2 Bft)
28.05.2015 00:28 13,2 C 11,7 C 68 % 0 lf 1016,9 hPa 0,0 l/m 0 min 0 min 0 W/m 12,6 km/h (3 Bft)
28.05.2015 00:30 13,2 C 11,7 C 68 % 0 lf 1016,9 hPa 0,0 l/m 0 min 0 min 0 W/m 12,6 km/h (3 Bft)
28.05.2015 00:32 13,2 C 11,7 C 68 % 0 lf 1017,0 hPa 0,0 l/m 0 min 0 min 0 W/m 14,6 km/h (3 Bft)
28.05.2015 00:34 13,2 C 11,7 C 68 % 0 lf 1017,0 hPa 0,0 l/m 0 min 0 min 0 W/m 6,3 km/h (2 Bft)
28.05.2015 00:36 13,2 C 11,7 C 68 % 0 lf 1016,9 hPa 0,0 l/m 0 min 0 min 0 W/m 6,3 km/h (2 Bft)
28.05.2015 00:38 13,2 C 11,7 C 68 % 0 lf 1016,9 hPa 0,0 l/m 0 min 0 min 0 W/m 8,4 km/h (2 Bft)
28.05.2015 00:40 13,1 C 11,7 C 69 % 0 lf 1016,9 hPa 0,0 l/m 0 min 0 min 0 W/m 8,4 km/h (2 Bft)
28.05.2015 00:42 13,1 C 11,7 C 69 % 0 lf 1016,9 hPa 0,0 l/m 0 min 0 min 0 W/m 8,4 km/h (2 Bft)
28.05.2015 00:44 13,1 C 11,7 C 69 % 0 lf 1016,8 hPa 0,0 l/m 0 min 0 min 0 W/m 8,4 km/h (2 Bft)
28.05.2015 00:46 13,1 C 11,7 C 69 % 0 lf 1016,7 hPa 0,0 l/m 0 min 0 min 0 W/m 8,4 km/h (2 Bft)
28.05.2015 00:48 13,1 C 11,7 C 69 % 0 lf 1016,8 hPa 0,0 l/m 0 min 0 min 0 W/m 4,2 km/h (1 Bft)
28.05.2015 00:50 13,1 C 11,7 C 69 % 0 lf 1016,7 hPa 0,0 l/m 0 min 0 min 0 W/m 6,3 km/h (2 Bft)
28.05.2015 00:52 13,1 C 11,7 C 69 % 0 lf 1016,7 hPa 0,0 l/m 0 min 0 min 0 W/m 8,4 km/h (2 Bft)
28.05.2015 00:54 13,1 C 11,7 C 69 % 0 lf 1016,8 hPa 0,0 l/m 0 min 0 min 0 W/m 4,2 km/h (1 Bft)
28.05.2015 00:56 13,1 C 11,7 C 70 % 0 lf 1016,7 hPa 0,0 l/m 0 min 0 min 0 W/m 6,3 km/h (2 Bft)
28.05.2015 00:58 13,1 C 11,7 C 70 % 0 lf 1016,7 hPa 0,0 l/m 0 min 0 min 0 W/m 8,4 km/h (2 Bft)
28.05.2015 01:00 13,1 C 11,7 C 70 % 0 lf 1016,6 hPa 0,0 l/m 0 min 0 min 0 W/m 10,5 km/h (2 Bft)
28.05.2015 01:02 13,1 C 11,7 C 70 % 0 lf 1016,6 hPa 0,0 l/m 0 min 0 min 0 W/m 8,4 km/h (2 Bft)
28.05.2015 01:04 13,1 C 11,7 C 70 % 0 lf 1016,6 hPa 0,0 l/m 0 min 0 min 0 W/m 6,3 km/h (2 Bft)
28.05.2015 01:06 13,1 C 11,7 C 70 % 0 lf 1016,6 hPa 0,0 l/m 0 min 0 min 0 W/m 6,3 km/h (2 Bft)
28.05.2015 01:08 13,1 C 11,7 C 70 % 0 lf 1016,5 hPa 0,0 l/m 0 min 0 min 0 W/m 8,4 km/h (2 Bft)
28.05.2015 01:10 13,1 C 11,7 C 70 % 0 lf 1016,5 hPa 0,0 l/m 0 min 0 min 0 W/m 8,4 km/h (2 Bft)
28.05.2015 01:12 13,1 C 11,7 C 70 % 0 lf 1016,5 hPa 0,0 l/m 0 min 0 min 0 W/m 8,4 km/h (2 Bft)
28.05.2015 01:14 13,1 C 11,7 C 70 % 0 lf 1016,5 hPa 0,0 l/m 0 min 0 min 0 W/m 8,4 km/h (2 Bft)
28.05.2015 01:16 13,1 C 11,7 C 70 % 0 lf 1016,5 hPa 0,0 l/m 0 min 0 min 0 W/m 6,3 km/h (2 Bft)
28.05.2015 01:18 13,1 C 11,7 C 70 % 0 lf 1016,4 hPa 0,0 l/m 0 min 0 min 0 W/m 6,3 km/h (2 Bft)
28.05.2015 01:20 13,1 C 11,7 C 70 % 0 lf 1016,5 hPa 0,0 l/m 0 min 0 min 0 W/m 8,4 km/h (2 Bft)
28.05.2015 01:22 13,0 C 11,7 C 70 % 0 lf 1016,4 hPa 0,0 l/m 0 min 0 min 0 W/m 6,3 km/h (2 Bft)
28.05.2015 01:24 13,0 C 11,7 C 70 % 0 lf 1016,4 hPa 0,0 l/m 0 min 0 min 0 W/m 8,4 km/h (2 Bft)
28.05.2015 01:26 13,0 C 11,7 C 71 % 0 lf 1016,3 hPa 0,0 l/m 0 min 0 min 0 W/m 10,5 km/h (2 Bft)
28.05.2015 01:28 13,0 C 11,7 C 71 % 0 lf 1016,3 hPa 0,0 l/m 0 min 0 min 0 W/m 8,4 km/h (2 Bft)
28.05.2015 01:30 13,0 C 11,7 C 71 % 0 lf 1016,4 hPa 0,0 l/m 0 min 0 min 0 W/m 8,4 km/h (2 Bft)
28.05.2015 01:32 13,0 C 11,7 C 71 % 0 lf 1016,3 hPa 0,0 l/m 0 min 0 min 0 W/m 10,5 km/h (2 Bft)
28.05.2015 01:34 13,0 C 11,7 C 71 % 0 lf 1016,3 hPa 0,0 l/m 0 min 0 min 0 W/m 8,4 km/h (2 Bft)
28.05.2015 01:36 13,0 C 11,7 C 71 % 0 lf 1016,3 hPa 0,0 l/m 0 min 0 min 0 W/m 8,4 km/h (2 Bft)
28.05.2015 01:38 13,0 C 11,7 C 71 % 0 lf 1016,3 hPa 0,0 l/m 0 min 0 min 0 W/m 8,4 km/h (2 Bft)
28.05.2015 01:40 13,0 C 11,7 C 71 % 0 lf 1016,2 hPa 0,0 l/m 0 min 0 min 0 W/m 8,4 km/h (2 Bft)
28.05.2015 01:42 12,9 C 11,7 C 71 % 0 lf 1016,3 hPa 0,0 l/m 0 min 0 min 0 W/m 8,4 km/h (2 Bft)
28.05.2015 01:44 12,9 C 11,7 C 71 % 0 lf 1016,2 hPa 0,0 l/m 0 min 0 min 0 W/m 6,3 km/h (2 Bft)
28.05.2015 01:46 12,9 C 11,7 C 72 % 0 lf 1016,3 hPa 0,0 l/m 0 min 0 min 0 W/m 8,4 km/h (2 Bft)
28.05.2015 01:48 12,9 C 11,7 C 72 % 0 lf 1016,2 hPa 0,0 l/m 0 min 0 min 0 W/m 8,4 km/h (2 Bft)
28.05.2015 01:50 12,9 C 11,7 C 72 % 0 lf 1016,2 hPa 0,0 l/m 0 min 0 min 0 W/m 12,6 km/h (3 Bft)
28.05.2015 01:52 12,9 C 11,7 C 72 % 0 lf 1016,2 hPa 0,0 l/m 0 min 0 min 0 W/m 8,4 km/h (2 Bft)
28.05.2015 01:54 12,9 C 11,7 C 72 % 0 lf 1016,2 hPa 0,0 l/m 0 min 0 min 0 W/m 10,5 km/h (2 Bft)
28.05.2015 01:56 12,9 C 11,7 C 72 % 0 lf 1016,2 hPa 0,0 l/m 0 min 0 min 0 W/m 8,4 km/h (2 Bft)
28.05.2015 01:58 12,9 C 11,7 C 72 % 0 lf 1016,2 hPa 0,0 l/m 0 min 0 min 0 W/m 10,5 km/h (2 Bft)
28.05.2015 02:00 12,9 C 11,7 C 72 % 0 lf 1016,2 hPa 0,0 l/m 0 min 0 min 0 W/m 8,4 km/h (2 Bft)
28.05.2015 02:02 12,9 C 11,7 C 72 % 0 lf 1016,2 hPa 0,0 l/m 0 min 0 min 0 W/m 10,5 km/h (2 Bft)
28.05.2015 02:04 12,9 C 11,7 C 72 % 0 lf 1016,2 hPa 0,0 l/m 0 min 0 min 0 W/m 8,4 km/h (2 Bft)
28.05.2015 02:06 12,9 C 11,7 C 72 % 0 lf 1016,1 hPa 0,0 l/m 0 min 0 min 0 W/m 12,6 km/h (3 Bft)
28.05.2015 02:08 12,9 C 11,7 C 73 % 0 lf 1016,2 hPa 0,0 l/m 0 min 0 min 0 W/m 10,5 km/h (2 Bft)
28.05.2015 02:10 12,9 C 11,7 C 73 % 0 lf 1016,2 hPa 0,0 l/m 0 min 0 min 0 W/m 8,4 km/h (2 Bft)
28.05.2015 02:12 12,9 C 11,7 C 73 % 0 lf 1016,1 hPa 0,0 l/m 0 min 0 min 0 W/m 8,4 km/h (2 Bft)
28.05.2015 02:14 12,9 C 11,7 C 73 % 0 lf 1016,2 hPa 0,0 l/m 0 min 0 min 0 W/m 10,5 km/h (2 Bft)
28.05.2015 02:16 12,9 C 11,7 C 73 % 0 lf 1016,2 hPa 0,0 l/m 0 min 0 min 0 W/m 8,4 km/h (2 Bft)
28.05.2015 02:18 12,9 C 11,7 C 73 % 0 lf 1016,3 hPa 0,0 l/m 0 min 0 min 0 W/m 6,3 km/h (2 Bft)
28.05.2015 02:20 12,9 C 11,7 C 73 % 0 lf 1016,3 hPa 0,0 l/m 0 min 0 min 0 W/m 6,3 km/h (2 Bft)
28.05.2015 02:22 12,9 C 11,7 C 73 % 0 lf 1016,2 hPa 0,0 l/m 0 min 0 min 0 W/m 8,4 km/h (2 Bft)
28.05.2015 02:24 12,9 C 11,7 C 73 % 0 lf 1016,1 hPa 0,0 l/m 0 min 0 min 0 W/m 4,2 km/h (1 Bft)
28.05.2015 02:26 12,9 C 11,7 C 73 % 0 lf 1016,1 hPa 0,0 l/m 0 min 0 min 0 W/m 8,4 km/h (2 Bft)
28.05.2015 02:28 12,9 C 11,7 C 73 % 0 lf 1016,1 hPa 0,0 l/m 0 min 0 min 0 W/m 8,4 km/h (2 Bft)
28.05.2015 02:30 12,9 C 11,7 C 73 % 0 lf 1016,1 hPa 0,0 l/m 0 min 0 min 0 W/m 8,4 km/h (2 Bft)
28.05.2015 02:32 12,9 C 11,7 C 73 % 0 lf 1016,0 hPa 0,0 l/m 0 min 0 min 0 W/m 8,4 km/h (2 Bft)
28.05.2015 02:34 12,9 C 11,7 C 73 % 0 lf 1015,9 hPa 0,0 l/m 0 min 0 min 0 W/m 8,4 km/h (2 Bft)
28.05.2015 02:36 13,0 C 11,7 C 73 % 0 lf 1015,8 hPa 0,0 l/m 0 min 0 min 0 W/m 10,5 km/h (2 Bft)
28.05.2015 02:38 13,0 C 11,7 C 73 % 0 lf 1015,7 hPa 0,0 l/m 0 min 0 min 0 W/m 8,4 km/h (2 Bft)
28.05.2015 02:40 13,0 C 11,7 C 73 % 0 lf 1015,7 hPa 0,0 l/m 0 min 0 min 0 W/m 8,4 km/h (2 Bft)
28.05.2015 02:42 13,0 C 11,7 C 73 % 0 lf 1015,6 hPa 0,0 l/m 0 min 0 min 0 W/m 6,3 km/h (2 Bft)
28.05.2015 02:44 13,0 C 11,7 C 73 % 0 lf 1015,5 hPa 0,0 l/m 0 min 0 min 0 W/m 6,3 km/h (2 Bft)
28.05.2015 02:46 13,0 C 11,7 C 73 % 0 lf 1015,5 hPa 0,0 l/m 0 min 0 min 0 W/m 6,3 km/h (2 Bft)
28.05.2015 02:48 13,0 C 11,7 C 73 % 0 lf 1015,5 hPa 0,0 l/m 0 min 0 min 0 W/m 8,4 km/h (2 Bft)
28.05.2015 02:50 13,0 C 11,7 C 73 % 0 lf 1015,5 hPa 0,0 l/m 0 min 0 min 0 W/m 8,4 km/h (2 Bft)
28.05.2015 02:52 12,9 C 11,7 C 73 % 0 lf 1015,5 hPa 0,0 l/m 0 min 0 min 0 W/m 8,4 km/h (2 Bft)
28.05.2015 02:54 12,9 C 11,7 C 73 % 0 lf 1015,4 hPa 0,0 l/m 0 min 0 min 0 W/m 6,3 km/h (2 Bft)
28.05.2015 02:56 12,9 C 11,7 C 73 % 0 lf 1015,4 hPa 0,0 l/m 0 min 0 min 0 W/m 6,3 km/h (2 Bft)
28.05.2015 02:58 12,9 C 11,7 C 73 % 0 lf 1015,4 hPa 0,0 l/m 0 min 0 min 0 W/m 6,3 km/h (2 Bft)
28.05.2015 03:00 12,9 C 11,7 C 74 % 0 lf 1015,4 hPa 0,0 l/m 0 min 0 min 0 W/m 6,3 km/h (2 Bft)
28.05.2015 03:02 12,9 C 11,7 C 73 % 0 lf 1015,4 hPa 0,0 l/m 0 min 0 min 0 W/m 4,2 km/h (1 Bft)
28.05.2015 03:04 12,9 C 11,7 C 73 % 0 lf 1015,3 hPa 0,0 l/m 0 min 0 min 0 W/m 4,2 km/h (1 Bft)
28.05.2015 03:06 12,9 C 11,7 C 74 % 0 lf 1015,3 hPa 0,0 l/m 0 min 0 min 0 W/m 6,3 km/h (2 Bft)
28.05.2015 03:08 12,9 C 11,7 C 73 % 0 lf 1015,3 hPa 0,0 l/m 0 min 0 min 0 W/m 6,3 km/h (2 Bft)
28.05.2015 03:10 12,9 C 11,7 C 74 % 0 lf 1015,3 hPa 0,0 l/m 0 min 0 min 0 W/m 8,4 km/h (2 Bft)
28.05.2015 03:12 12,9 C 11,7 C 74 % 0 lf 1015,2 hPa 0,0 l/m 0 min 0 min 0 W/m 6,3 km/h (2 Bft)
28.05.2015 03:14 12,9 C 11,7 C 74 % 0 lf 1015,2 hPa 0,0 l/m 0 min 0 min 0 W/m 6,3 km/h (2 Bft)
28.05.2015 03:16 12,9 C 11,7 C 74 % 0 lf 1015,2 hPa 0,0 l/m 0 min 0 min 0 W/m 8,4 km/h (2 Bft)
28.05.2015 03:18 12,9 C 11,7 C 74 % 0 lf 1015,2 hPa 0,0 l/m 0 min 0 min 0 W/m 6,3 km/h (2 Bft)
28.05.2015 03:20 12,9 C 11,7 C 74 % 0 lf 1015,1 hPa 0,0 l/m 0 min 0 min 0 W/m 8,4 km/h (2 Bft)
28.05.2015 03:22 12,9 C 11,7 C 74 % 0 lf 1015,0 hPa 0,0 l/m 0 min 0 min 0 W/m 8,4 km/h (2 Bft)
28.05.2015 03:24 12,9 C 11,7 C 74 % 0 lf 1015,1 hPa 0,0 l/m 0 min 0 min 0 W/m 10,5 km/h (2 Bft)
28.05.2015 03:26 12,8 C 11,7 C 74 % 0 lf 1015,0 hPa 0,0 l/m 0 min 0 min 0 W/m 10,5 km/h (2 Bft)
28.05.2015 03:28 12,8 C 11,7 C 74 % 0 lf 1015,1 hPa 0,0 l/m 0 min 0 min 0 W/m 8,4 km/h (2 Bft)
28.05.2015 03:30 12,8 C 11,7 C 74 % 0 lf 1015,0 hPa 0,0 l/m 0 min 0 min 0 W/m 8,4 km/h (2 Bft)
28.05.2015 03:32 12,8 C 11,7 C 75 % 0 lf 1015,0 hPa 0,0 l/m 0 min 0 min 0 W/m 12,6 km/h (3 Bft)
28.05.2015 03:34 12,8 C 11,7 C 75 % 0 lf 1015,0 hPa 0,0 l/m 0 min 0 min 0 W/m 8,4 km/h (2 Bft)
28.05.2015 03:36 12,8 C 11,7 C 75 % 0 lf 1015,0 hPa 0,0 l/m 0 min 0 min 0 W/m 8,4 km/h (2 Bft)
28.05.2015 03:38 12,8 C 11,7 C 75 % 0 lf 1015,0 hPa 0,0 l/m 0 min 0 min 0 W/m 8,4 km/h (2 Bft)
28.05.2015 03:40 12,8 C 11,7 C 75 % 0 lf 1014,9 hPa 0,0 l/m 0 min 0 min 0 W/m 6,3 km/h (2 Bft)
28.05.2015 03:42 12,8 C 11,7 C 75 % 0 lf 1014,8 hPa 0,0 l/m 0 min 0 min 0 W/m 8,4 km/h (2 Bft)
28.05.2015 03:44 12,8 C 11,7 C 75 % 0 lf 1014,8 hPa 0,0 l/m 0 min 0 min 0 W/m 6,3 km/h (2 Bft)
28.05.2015 03:46 12,8 C 11,7 C 75 % 0 lf 1014,8 hPa 0,0 l/m 0 min 0 min 0 W/m 8,4 km/h (2 Bft)
28.05.2015 03:48 12,8 C 11,7 C 75 % 0 lf 1014,7 hPa 0,0 l/m 0 min 0 min 0 W/m 6,3 km/h (2 Bft)
28.05.2015 03:50 12,8 C 11,7 C 75 % 0 lf 1014,7 hPa 0,0 l/m 0 min 0 min 0 W/m 6,3 km/h (2 Bft)
28.05.2015 03:52 12,8 C 11,7 C 75 % 0 lf 1014,8 hPa 0,0 l/m 0 min 0 min 0 W/m 10,5 km/h (2 Bft)
28.05.2015 03:54 12,8 C 11,7 C 75 % 0 lf 1014,7 hPa 0,0 l/m 0 min 0 min 0 W/m 10,5 km/h (2 Bft)
28.05.2015 03:56 12,8 C 11,7 C 75 % 0 lf 1014,7 hPa 0,0 l/m 0 min 0 min 0 W/m 10,5 km/h (2 Bft)
28.05.2015 03:58 12,8 C 11,7 C 75 % 0 lf 1014,7 hPa 0,0 l/m 0 min 0 min 0 W/m 6,3 km/h (2 Bft)
28.05.2015 04:00 12,8 C 11,7 C 75 % 0 lf 1014,7 hPa 0,0 l/m 0 min 0 min 0 W/m 6,3 km/h (2 Bft)
28.05.2015 04:02 12,8 C 11,7 C 75 % 0 lf 1014,7 hPa 0,0 l/m 0 min 0 min 0 W/m 12,6 km/h (3 Bft)
28.05.2015 04:04 12,8 C 11,7 C 75 % 0 lf 1014,6 hPa 0,0 l/m 0 min 0 min 0 W/m 8,4 km/h (2 Bft)
28.05.2015 04:06 12,8 C 11,7 C 75 % 0 lf 1014,6 hPa 0,0 l/m 0 min 0 min 0 W/m 8,4 km/h (2 Bft)
28.05.2015 04:08 12,8 C 11,7 C 75 % 0 lf 1014,6 hPa 0,0 l/m 0 min 0 min 0 W/m 14,6 km/h (3 Bft)
28.05.2015 04:10 12,8 C 11,7 C 75 % 0 lf 1014,6 hPa 0,0 l/m 0 min 0 min 0 W/m 12,6 km/h (3 Bft)
28.05.2015 04:12 12,9 C 11,7 C 75 % 0 lf 1014,5 hPa 0,0 l/m 0 min 0 min 0 W/m 16,7 km/h (3 Bft)
28.05.2015 04:14 12,9 C 11,7 C 75 % 0 lf 1014,6 hPa 0,0 l/m 0 min 0 min 0 W/m 14,6 km/h (3 Bft)
28.05.2015 04:16 12,9 C 11,7 C 75 % 0 lf 1014,5 hPa 0,0 l/m 0 min 0 min 0 W/m 16,7 km/h (3 Bft)
28.05.2015 04:18 13,0 C 11,7 C 75 % 0 lf 1014,5 hPa 0,0 l/m 0 min 0 min 0 W/m 14,6 km/h (3 Bft)
28.05.2015 04:20 13,0 C 11,7 C 75 % 0 lf 1014,5 hPa 0,0 l/m 0 min 0 min 0 W/m 14,6 km/h (3 Bft)
28.05.2015 04:22 13,1 C 12,2 C 75 % 0 lf 1014,4 hPa 0,0 l/m 0 min 0 min 0 W/m 14,6 km/h (3 Bft)
28.05.2015 04:24 13,1 C 12,2 C 74 % 0 lf 1014,3 hPa 0,0 l/m 0 min 0 min 0 W/m 18,8 km/h (3 Bft)
28.05.2015 04:26 13,1 C 12,2 C 74 % 0 lf 1014,3 hPa 0,0 l/m 0 min 0 min 0 W/m 16,7 km/h (3 Bft)
28.05.2015 04:28 13,2 C 12,2 C 74 % 0 lf 1014,3 hPa 0,0 l/m 0 min 0 min 0 W/m 16,7 km/h (3 Bft)
28.05.2015 04:30 13,2 C 12,2 C 74 % 0 lf 1014,2 hPa 0,0 l/m 0 min 0 min 0 W/m 18,8 km/h (3 Bft)
28.05.2015 04:32 13,2 C 12,2 C 74 % 0 lf 1014,3 hPa 0,0 l/m 0 min 0 min 0 W/m 18,8 km/h (3 Bft)
28.05.2015 04:34 13,3 C 12,2 C 74 % 0 lf 1014,2 hPa 0,0 l/m 0 min 0 min 0 W/m 14,6 km/h (3 Bft)
28.05.2015 04:36 13,3 C 12,2 C 74 % 0 lf 1014,3 hPa 0,0 l/m 0 min 0 min 0 W/m 16,7 km/h (3 Bft)
28.05.2015 04:38 13,4 C 12,2 C 73 % 0 lf 1014,3 hPa 0,0 l/m 0 min 0 min 0 W/m 16,7 km/h (3 Bft)
28.05.2015 04:40 13,4 C 12,2 C 73 % 0 lf 1014,3 hPa 0,0 l/m 0 min 0 min 0 W/m 12,6 km/h (3 Bft)
28.05.2015 04:42 13,4 C 12,2 C 73 % 0 lf 1014,2 hPa 0,0 l/m 0 min 0 min 0 W/m 18,8 km/h (3 Bft)
28.05.2015 04:44 13,5 C 12,2 C 73 % 0 lf 1014,1 hPa 0,0 l/m 0 min 0 min 0 W/m 18,8 km/h (3 Bft)
28.05.2015 04:46 13,5 C 12,2 C 73 % 0 lf 1013,9 hPa 0,0 l/m 0 min 0 min 0 W/m 16,7 km/h (3 Bft)
28.05.2015 04:48 13,5 C 12,2 C 73 % 0 lf 1014,1 hPa 0,0 l/m 0 min 0 min 0 W/m 14,6 km/h (3 Bft)
28.05.2015 04:50 13,5 C 12,2 C 73 % 0 lf 1014,2 hPa 0,0 l/m 0 min 0 min 0 W/m 14,6 km/h (3 Bft)
28.05.2015 04:52 13,6 C 12,2 C 73 % 0 lf 1014,2 hPa 0,0 l/m 0 min 0 min 0 W/m 10,5 km/h (2 Bft)
28.05.2015 04:54 13,6 C 12,2 C 73 % 0 lf 1014,3 hPa 0,0 l/m 0 min 0 min 0 W/m 10,5 km/h (2 Bft)
28.05.2015 04:56 13,6 C 12,2 C 73 % 0 lf 1014,2 hPa 0,0 l/m 0 min 0 min 0 W/m 12,6 km/h (3 Bft)
28.05.2015 04:58 13,6 C 12,2 C 73 % 0 lf 1014,3 hPa 0,0 l/m 0 min 0 min 0 W/m 14,6 km/h (3 Bft)
28.05.2015 05:00 13,6 C 12,2 C 73 % 0 lf 1014,2 hPa 0,0 l/m 0 min 0 min 0 W/m 16,7 km/h (3 Bft)
28.05.2015 05:02 13,6 C 12,2 C 72 % 0 lf 1014,2 hPa 0,0 l/m 0 min 0 min 0 W/m 18,8 km/h (3 Bft)
28.05.2015 05:04 13,6 C 12,2 C 72 % 0 lf 1014,1 hPa 0,0 l/m 0 min 0 min 0 W/m 20,9 km/h (4 Bft)
28.05.2015 05:06 13,6 C 12,2 C 72 % 0 lf 1014,2 hPa 0,0 l/m 0 min 0 min 0 W/m 12,6 km/h (3 Bft)
28.05.2015 05:08 13,6 C 12,2 C 72 % 0 lf 1014,2 hPa 0,0 l/m 0 min 0 min 0 W/m 12,6 km/h (3 Bft)
28.05.2015 05:10 13,6 C 12,2 C 72 % 0 lf 1014,2 hPa 0,0 l/m 0 min 0 min 0 W/m 12,6 km/h (3 Bft)
28.05.2015 05:12 13,7 C 12,2 C 72 % 0 lf 1014,2 hPa 0,0 l/m 0 min 0 min 0 W/m 12,6 km/h (3 Bft)
28.05.2015 05:14 13,7 C 12,2 C 72 % 0 lf 1014,2 hPa 0,0 l/m 0 min 0 min 0 W/m 10,5 km/h (2 Bft)
28.05.2015 05:16 13,7 C 12,2 C 72 % 0 lf 1014,2 hPa 0,0 l/m 0 min 0 min 0 W/m 10,5 km/h (2 Bft)
28.05.2015 05:18 13,7 C 12,2 C 72 % 0 lf 1014,2 hPa 0,0 l/m 0 min 0 min 0 W/m 16,7 km/h (3 Bft)
28.05.2015 05:20 13,7 C 12,2 C 72 % 0 lf 1014,3 hPa 0,0 l/m 0 min 0 min 0 W/m 16,7 km/h (3 Bft)
28.05.2015 05:22 13,7 C 12,2 C 72 % 0 lf 1014,2 hPa 0,0 l/m 0 min 0 min 0 W/m 8,4 km/h (2 Bft)
28.05.2015 05:24 13,7 C 12,2 C 72 % 0 lf 1014,3 hPa 0,0 l/m 0 min 0 min 0 W/m 14,6 km/h (3 Bft)
28.05.2015 05:26 13,7 C 12,2 C 72 % 0 lf 1014,2 hPa 0,0 l/m 0 min 0 min 0 W/m 18,8 km/h (3 Bft)
28.05.2015 05:28 13,7 C 12,2 C 72 % 0 lf 1014,2 hPa 0,0 l/m 0 min 0 min 0 W/m 14,6 km/h (3 Bft)
28.05.2015 05:30 13,7 C 12,2 C 72 % 0 lf 1014,2 hPa 0,0 l/m 0 min 0 min 0 W/m 14,6 km/h (3 Bft)
28.05.2015 05:32 13,7 C 12,2 C 72 % 0 lf 1014,2 hPa 0,0 l/m 0 min 0 min 0 W/m 16,7 km/h (3 Bft)
28.05.2015 05:34 13,7 C 12,2 C 71 % 0 lf 1014,2 hPa 0,0 l/m 0 min 0 min 0 W/m 16,7 km/h (3 Bft)
28.05.2015 05:36 13,7 C 12,2 C 71 % 0 lf 1014,1 hPa 0,0 l/m 0 min 0 min 0 W/m 16,7 km/h (3 Bft)
28.05.2015 05:38 13,7 C 12,2 C 71 % 0 lf 1014,2 hPa 0,0 l/m 0 min 0 min 3 W/m 16,7 km/h (3 Bft)
28.05.2015 05:40 13,7 C 12,2 C 71 % 0 lf 1014,1 hPa 0,0 l/m 0 min 0 min 5 W/m 20,9 km/h (4 Bft)
28.05.2015 05:42 13,7 C 12,2 C 71 % 0 lf 1014,0 hPa 0,0 l/m 0 min 0 min 5 W/m 16,7 km/h (3 Bft)
28.05.2015 05:44 13,7 C 12,2 C 71 % 0 lf 1014,1 hPa 0,0 l/m 0 min 0 min 6 W/m 18,8 km/h (3 Bft)
28.05.2015 05:46 13,7 C 12,2 C 71 % 0 lf 1014,0 hPa 0,0 l/m 0 min 0 min 7 W/m 14,6 km/h (3 Bft)
28.05.2015 05:48 13,7 C 12,2 C 71 % 0 lf 1014,0 hPa 0,0 l/m 0 min 0 min 7 W/m 12,6 km/h (3 Bft)
28.05.2015 05:50 13,7 C 12,2 C 71 % 0 lf 1014,0 hPa 0,0 l/m 0 min 0 min 7 W/m 10,5 km/h (2 Bft)
28.05.2015 05:52 13,8 C 12,2 C 71 % 0 lf 1014,0 hPa 0,0 l/m 0 min 0 min 8 W/m 14,6 km/h (3 Bft)
28.05.2015 05:54 13,8 C 12,2 C 71 % 0 lf 1014,0 hPa 0,0 l/m 0 min 0 min 9 W/m 20,9 km/h (4 Bft)
28.05.2015 05:56 13,8 C 12,2 C 71 % 0 lf 1013,9 hPa 0,0 l/m 0 min 0 min 10 W/m 18,8 km/h (3 Bft)
28.05.2015 05:58 13,8 C 12,2 C 71 % 0 lf 1013,9 hPa 0,0 l/m 0 min 0 min 11 W/m 16,7 km/h (3 Bft)
28.05.2015 06:00 13,8 C 12,2 C 71 % 0 lf 1013,9 hPa 0,0 l/m 0 min 0 min 12 W/m 25,1 km/h (4 Bft)
28.05.2015 06:02 13,8 C 12,2 C 71 % 0 lf 1013,9 hPa 0,0 l/m 0 min 0 min 15 W/m 20,9 km/h (4 Bft)
28.05.2015 06:06 13,8 C 12,2 C 71 % 0 lf 1013,9 hPa 0,0 l/m 0 min 0 min 20 W/m 18,8 km/h (3 Bft)
28.05.2015 06:08 13,9 C 12,2 C 71 % 0 lf 1013,9 hPa 0,0 l/m 0 min 0 min 24 W/m 10,5 km/h (2 Bft)
28.05.2015 06:10 13,9 C 12,2 C 71 % 0 lf 1013,9 hPa 0,0 l/m 0 min 0 min 25 W/m 20,9 km/h (4 Bft)
28.05.2015 06:12 13,9 C 12,2 C 71 % 0 lf 1013,9 hPa 0,0 l/m 0 min 0 min 23 W/m 25,1 km/h (4 Bft)
28.05.2015 06:14 13,9 C 12,2 C 70 % 0 lf 1013,9 hPa 0,0 l/m 0 min 0 min 23 W/m 18,8 km/h (3 Bft)
28.05.2015 06:16 13,9 C 12,2 C 70 % 0 lf 1013,8 hPa 0,0 l/m 0 min 0 min 23 W/m 16,7 km/h (3 Bft)
28.05.2015 06:18 13,9 C 12,2 C 71 % 0 lf 1013,8 hPa 0,0 l/m 0 min 0 min 23 W/m 20,9 km/h (4 Bft)
28.05.2015 06:20 13,9 C 12,2 C 70 % 0 lf 1013,8 hPa 0,0 l/m 0 min 0 min 24 W/m 20,9 km/h (4 Bft)
28.05.2015 06:22 13,9 C 12,2 C 70 % 0 lf 1013,9 hPa 0,0 l/m 0 min 0 min 25 W/m 20,9 km/h (4 Bft)
28.05.2015 06:24 13,9 C 12,2 C 70 % 0 lf 1013,8 hPa 0,0 l/m 0 min 0 min 26 W/m 27,2 km/h (4 Bft)
28.05.2015 06:26 14,0 C 12,2 C 71 % 0 lf 1013,9 hPa 0,0 l/m 0 min 0 min 28 W/m 16,7 km/h (3 Bft)
28.05.2015 06:28 14,0 C 12,2 C 71 % 0 lf 1013,9 hPa 0,0 l/m 0 min 0 min 27 W/m 14,6 km/h (3 Bft)
28.05.2015 06:30 14,0 C 12,2 C 71 % 0 lf 1013,8 hPa 0,0 l/m 0 min 0 min 25 W/m 18,8 km/h (3 Bft)
28.05.2015 06:32 14,0 C 12,2 C 71 % 0 lf 1013,8 hPa 0,0 l/m 0 min 0 min 23 W/m 14,6 km/h (3 Bft)
28.05.2015 06:34 14,0 C 12,2 C 71 % 0 lf 1013,8 hPa 0,0 l/m 0 min 0 min 23 W/m 14,6 km/h (3 Bft)
28.05.2015 06:36 14,0 C 12,2 C 71 % 0 lf 1013,8 hPa 0,0 l/m 0 min 0 min 24 W/m 16,7 km/h (3 Bft)
28.05.2015 06:38 14,0 C 12,2 C 71 % 0 lf 1013,8 hPa 0,0 l/m 0 min 0 min 26 W/m 18,8 km/h (3 Bft)
28.05.2015 06:40 14,0 C 12,2 C 71 % 0 lf 1013,9 hPa 0,0 l/m 0 min 0 min 29 W/m 18,8 km/h (3 Bft)
28.05.2015 06:42 14,1 C 12,2 C 71 % 0 lf 1013,8 hPa 0,0 l/m 0 min 0 min 33 W/m 18,8 km/h (3 Bft)
28.05.2015 06:44 14,1 C 12,2 C 71 % 0 lf 1013,9 hPa 0,0 l/m 0 min 0 min 37 W/m 16,7 km/h (3 Bft)
28.05.2015 06:46 14,1 C 12,2 C 71 % 0 lf 1013,8 hPa 0,0 l/m 0 min 0 min 42 W/m 12,6 km/h (3 Bft)
28.05.2015 06:48 14,1 C 12,8 C 71 % 0 lf 1013,9 hPa 0,0 l/m 0 min 0 min 55 W/m 16,7 km/h (3 Bft)
28.05.2015 06:50 14,1 C 12,8 C 71 % 0 lf 1013,9 hPa 0,0 l/m 0 min 0 min 69 W/m 14,6 km/h (3 Bft)
28.05.2015 06:52 14,1 C 12,8 C 71 % 0 lf 1013,9 hPa 0,0 l/m 0 min 0 min 74 W/m 14,6 km/h (3 Bft)
28.05.2015 06:54 14,1 C 12,8 C 71 % 0 lf 1013,9 hPa 0,0 l/m 0 min 0 min 76 W/m 18,8 km/h (3 Bft)
28.05.2015 06:56 14,1 C 12,8 C 71 % 0 lf 1013,9 hPa 0,0 l/m 0 min 0 min 74 W/m 20,9 km/h (4 Bft)
28.05.2015 06:58 14,2 C 12,8 C 71 % 0 lf 1013,9 hPa 0,0 l/m 0 min 0 min 72 W/m 31,4 km/h (5 Bft)
28.05.2015 07:00 14,2 C 12,8 C 71 % 0 lf 1013,9 hPa 0,0 l/m 0 min 0 min 70 W/m 12,6 km/h (3 Bft)
28.05.2015 07:02 14,2 C 12,8 C 71 % 0 lf 1014,0 hPa 0,0 l/m 0 min 0 min 65 W/m 18,8 km/h (3 Bft)
28.05.2015 07:04 14,2 C 12,8 C 71 % 0 lf 1013,9 hPa 0,0 l/m 0 min 0 min 63 W/m 20,9 km/h (4 Bft)
28.05.2015 07:06 14,2 C 12,8 C 71 % 0 lf 1013,9 hPa 0,0 l/m 0 min 0 min 62 W/m 20,9 km/h (4 Bft)
28.05.2015 07:08 14,2 C 12,8 C 71 % 0 lf 1014,0 hPa 0,0 l/m 0 min 0 min 62 W/m 14,6 km/h (3 Bft)
28.05.2015 07:10 14,2 C 12,8 C 71 % 0 lf 1014,0 hPa 0,0 l/m 0 min 0 min 66 W/m 20,9 km/h (4 Bft)
28.05.2015 07:12 14,2 C 12,8 C 71 % 0 lf 1013,9 hPa 0,0 l/m 0 min 0 min 76 W/m 18,8 km/h (3 Bft)
28.05.2015 07:14 14,2 C 12,8 C 71 % 0 lf 1013,9 hPa 0,0 l/m 0 min 0 min 87 W/m 14,6 km/h (3 Bft)
28.05.2015 07:16 14,2 C 12,8 C 72 % 0 lf 1013,8 hPa 0,0 l/m 0 min 0 min 94 W/m 18,8 km/h (3 Bft)
28.05.2015 07:18 14,2 C 12,8 C 72 % 0 lf 1013,8 hPa 0,0 l/m 0 min 0 min 92 W/m 20,9 km/h (4 Bft)
28.05.2015 07:20 14,2 C 12,8 C 72 % 0 lf 1013,9 hPa 0,0 l/m 0 min 0 min 91 W/m 14,6 km/h (3 Bft)
28.05.2015 07:22 14,2 C 12,8 C 72 % 0 lf 1013,8 hPa 0,0 l/m 0 min 0 min 90 W/m 18,8 km/h (3 Bft)
28.05.2015 07:24 14,2 C 12,8 C 72 % 0 lf 1013,9 hPa 0,0 l/m 0 min 0 min 84 W/m 12,6 km/h (3 Bft)
28.05.2015 07:26 14,2 C 12,8 C 72 % 0 lf 1013,8 hPa 0,0 l/m 0 min 0 min 77 W/m 23,0 km/h (4 Bft)
28.05.2015 07:28 14,2 C 12,8 C 72 % 0 lf 1013,8 hPa 0,0 l/m 0 min 0 min 71 W/m 14,6 km/h (3 Bft)
28.05.2015 07:30 14,2 C 12,8 C 72 % 0 lf 1013,9 hPa 0,0 l/m 0 min 0 min 71 W/m 18,8 km/h (3 Bft)
28.05.2015 07:32 14,3 C 12,8 C 72 % 0 lf 1013,9 hPa 0,0 l/m 0 min 0 min 80 W/m 14,6 km/h (3 Bft)
28.05.2015 07:34 14,3 C 12,8 C 72 % 0 lf 1014,0 hPa 0,0 l/m 0 min 0 min 89 W/m 14,6 km/h (3 Bft)
28.05.2015 07:36 14,3 C 12,8 C 72 % 0 lf 1013,9 hPa 0,0 l/m 0 min 0 min 100 W/m 16,7 km/h (3 Bft)
28.05.2015 07:38 14,3 C 12,8 C 72 % 0 lf 1013,9 hPa 0,0 l/m 0 min 0 min 108 W/m 18,8 km/h (3 Bft)
28.05.2015 07:40 14,3 C 12,8 C 72 % 0 lf 1014,0 hPa 0,0 l/m 0 min 0 min 103 W/m 20,9 km/h (4 Bft)
28.05.2015 07:42 14,3 C 12,8 C 72 % 0 lf 1014,0 hPa 0,0 l/m 0 min 0 min 112 W/m 14,6 km/h (3 Bft)
28.05.2015 07:44 14,3 C 12,8 C 72 % 0 lf 1013,8 hPa 0,0 l/m 0 min 0 min 122 W/m 25,1 km/h (4 Bft)
28.05.2015 07:46 14,3 C 12,8 C 72 % 0 lf 1013,8 hPa 0,0 l/m 0 min 0 min 147 W/m 29,3 km/h (5 Bft)
28.05.2015 07:48 14,4 C 12,8 C 72 % 0 lf 1013,9 hPa 0,0 l/m 2 min 0 min 186 W/m 23,0 km/h (4 Bft)
28.05.2015 07:50 14,4 C 13,3 C 72 % 0 lf 1013,9 hPa 0,0 l/m 2 min 0 min 172 W/m 27,2 km/h (4 Bft)
28.05.2015 07:52 14,4 C 13,3 C 72 % 0 lf 1013,9 hPa 0,0 l/m 2 min 0 min 246 W/m 20,9 km/h (4 Bft)
28.05.2015 07:54 14,5 C 13,3 C 72 % 0 lf 1013,9 hPa 0,0 l/m 2 min 0 min 191 W/m 18,8 km/h (3 Bft)
28.05.2015 07:56 14,5 C 13,3 C 72 % 0 lf 1013,8 hPa 0,0 l/m 0 min 0 min 142 W/m 29,3 km/h (5 Bft)
28.05.2015 07:58 14,6 C 13,3 C 72 % 0 lf 1013,9 hPa 0,0 l/m 0 min 0 min 120 W/m 23,0 km/h (4 Bft)
28.05.2015 08:00 14,6 C 13,3 C 72 % 0 lf 1013,9 hPa 0,0 l/m 0 min 0 min 108 W/m 23,0 km/h (4 Bft)
28.05.2015 08:02 14,6 C 13,3 C 71 % 0 lf 1014,0 hPa 0,0 l/m 0 min 0 min 110 W/m 23,0 km/h (4 Bft)
28.05.2015 08:04 14,7 C 13,3 C 71 % 0 lf 1014,0 hPa 0,0 l/m 0 min 0 min 127 W/m 23,0 km/h (4 Bft)
28.05.2015 08:06 14,7 C 13,3 C 71 % 0 lf 1014,0 hPa 0,0 l/m 0 min 0 min 152 W/m 20,9 km/h (4 Bft)
28.05.2015 08:08 14,7 C 13,3 C 71 % 0 lf 1014,0 hPa 0,0 l/m 0 min 0 min 160 W/m 25,1 km/h (4 Bft)
28.05.2015 08:10 14,7 C 13,3 C 71 % 0 lf 1013,9 hPa 0,0 l/m 0 min 0 min 163 W/m 23,0 km/h (4 Bft)
28.05.2015 08:12 14,8 C 13,3 C 71 % 0 lf 1014,0 hPa 0,0 l/m 0 min 0 min 181 W/m 18,8 km/h (3 Bft)
28.05.2015 08:14 14,8 C 13,9 C 71 % 0 lf 1013,9 hPa 0,0 l/m 2 min 0 min 201 W/m 18,8 km/h (3 Bft)
28.05.2015 08:16 14,8 C 13,9 C 71 % 0 lf 1013,9 hPa 0,0 l/m 2 min 0 min 203 W/m 18,8 km/h (3 Bft)
28.05.2015 08:18 14,8 C 13,9 C 71 % 0 lf 1014,0 hPa 0,0 l/m 0 min 0 min 189 W/m 23,0 km/h (4 Bft)
28.05.2015 08:20 14,9 C 13,9 C 71 % 0 lf 1013,9 hPa 0,0 l/m 0 min 0 min 183 W/m 20,9 km/h (4 Bft)
28.05.2015 08:22 14,9 C 13,9 C 71 % 0 lf 1013,9 hPa 0,0 l/m 2 min 0 min 232 W/m 25,1 km/h (4 Bft)
28.05.2015 08:24 14,9 C 13,9 C 71 % 0 lf 1013,9 hPa 0,0 l/m 2 min 0 min 287 W/m 23,0 km/h (4 Bft)
28.05.2015 08:26 15,0 C 13,9 C 70 % 0 lf 1013,9 hPa 0,0 l/m 2 min 0 min 352 W/m 29,3 km/h (5 Bft)
28.05.2015 08:28 15,0 C 13,9 C 70 % 0 lf 1013,9 hPa 0,0 l/m 0 min 0 min 193 W/m 31,4 km/h (5 Bft)
28.05.2015 08:30 15,1 C 13,9 C 70 % 0 lf 1013,9 hPa 0,0 l/m 2 min 0 min 284 W/m 27,2 km/h (4 Bft)
28.05.2015 08:32 15,1 C 13,9 C 70 % 0 lf 1013,8 hPa 0,0 l/m 2 min 0 min 501 W/m 18,8 km/h (3 Bft)
28.05.2015 08:34 15,1 C 13,9 C 71 % 0 lf 1013,8 hPa 0,0 l/m 2 min 0 min 297 W/m 31,4 km/h (5 Bft)
28.05.2015 08:36 15,2 C 13,9 C 70 % 0 lf 1013,7 hPa 0,0 l/m 2 min 0 min 491 W/m 29,3 km/h (5 Bft)
28.05.2015 08:38 15,3 C 13,9 C 70 % 0 lf 1013,8 hPa 0,0 l/m 2 min 0 min 446 W/m 27,2 km/h (4 Bft)
28.05.2015 08:40 15,3 C 13,9 C 70 % 0 lf 1013,7 hPa 0,0 l/m 2 min 0 min 282 W/m 18,8 km/h (3 Bft)
28.05.2015 08:42 15,4 C 13,9 C 69 % 0 lf 1013,7 hPa 0,0 l/m 0 min 0 min 197 W/m 25,1 km/h (4 Bft)
28.05.2015 08:44 15,4 C 13,9 C 69 % 0 lf 1013,7 hPa 0,0 l/m 2 min 0 min 236 W/m 31,4 km/h (5 Bft)
28.05.2015 08:46 15,4 C 13,9 C 68 % 0 lf 1013,7 hPa 0,0 l/m 2 min 0 min 291 W/m 27,2 km/h (4 Bft)
28.05.2015 08:48 15,4 C 13,9 C 68 % 0 lf 1013,8 hPa 0,0 l/m 2 min 0 min 244 W/m 23,0 km/h (4 Bft)
28.05.2015 08:50 15,5 C 13,9 C 68 % 0 lf 1013,7 hPa 0,0 l/m 0 min 0 min 210 W/m 29,3 km/h (5 Bft)
28.05.2015 08:52 15,4 C 13,9 C 68 % 0 lf 1013,7 hPa 0,0 l/m 0 min 0 min 205 W/m 23,0 km/h (4 Bft)
28.05.2015 08:54 15,5 C 13,9 C 68 % 0 lf 1013,7 hPa 0,0 l/m 0 min 0 min 232 W/m 20,9 km/h (4 Bft)
28.05.2015 08:56 15,5 C 13,9 C 68 % 0 lf 1013,7 hPa 0,0 l/m 2 min 0 min 315 W/m 16,7 km/h (3 Bft)
28.05.2015 08:58 15,5 C 13,9 C 69 % 0 lf 1013,7 hPa 0,0 l/m 2 min 0 min 339 W/m 23,0 km/h (4 Bft)
28.05.2015 09:00 15,6 C 13,9 C 68 % 0 lf 1013,8 hPa 0,0 l/m 2 min 0 min 409 W/m 20,9 km/h (4 Bft)
28.05.2015 09:02 15,6 C 13,9 C 69 % 0 lf 1013,8 hPa 0,0 l/m 2 min 0 min 516 W/m 16,7 km/h (3 Bft)
28.05.2015 09:04 15,7 C 13,9 C 68 % 0 lf 1013,8 hPa 0,0 l/m 2 min 0 min 548 W/m 18,8 km/h (3 Bft)
28.05.2015 09:06 15,8 C 13,9 C 67 % 0 lf 1013,6 hPa 0,0 l/m 2 min 0 min 554 W/m 27,2 km/h (4 Bft)
28.05.2015 09:08 15,9 C 13,9 C 67 % 0 lf 1013,7 hPa 0,0 l/m 2 min 0 min 466 W/m 27,2 km/h (4 Bft)
28.05.2015 09:10 16,0 C 13,9 C 67 % 0 lf 1013,6 hPa 0,0 l/m 2 min 0 min 525 W/m 25,1 km/h (4 Bft)
28.05.2015 09:12 16,1 C 14,4 C 67 % 0 lf 1013,7 hPa 0,0 l/m 2 min 0 min 613 W/m 33,5 km/h (5 Bft)
28.05.2015 09:14 16,2 C 14,4 C 67 % 0 lf 1013,7 hPa 0,0 l/m 2 min 0 min 705 W/m 20,9 km/h (4 Bft)
28.05.2015 09:16 16,4 C 15,0 C 67 % 0 lf 1013,7 hPa 0,0 l/m 2 min 0 min 680 W/m 25,1 km/h (4 Bft)
28.05.2015 09:18 16,6 C 15,0 C 66 % 0 lf 1013,6 hPa 0,0 l/m 2 min 0 min 378 W/m 29,3 km/h (5 Bft)
28.05.2015 09:20 16,7 C 15,0 C 65 % 0 lf 1013,5 hPa 0,0 l/m 2 min 0 min 314 W/m 35,6 km/h (5 Bft)
28.05.2015 09:22 16,7 C 15,0 C 65 % 0 lf 1013,5 hPa 0,0 l/m 0 min 0 min 213 W/m 23,0 km/h (4 Bft)
28.05.2015 09:24 16,7 C 15,0 C 65 % 0 lf 1013,5 hPa 0,0 l/m 0 min 0 min 206 W/m 23,0 km/h (4 Bft)
28.05.2015 09:26 16,7 C 15,0 C 65 % 0 lf 1013,5 hPa 0,0 l/m 0 min 0 min 232 W/m 18,8 km/h (3 Bft)
28.05.2015 09:28 16,8 C 15,0 C 65 % 0 lf 1013,5 hPa 0,0 l/m 2 min 0 min 325 W/m 18,8 km/h (3 Bft)
28.05.2015 09:30 16,8 C 15,0 C 66 % 0 lf 1013,5 hPa 0,0 l/m 2 min 0 min 487 W/m 31,4 km/h (5 Bft)
28.05.2015 09:32 16,8 C 15,6 C 65 % 0 lf 1013,6 hPa 0,0 l/m 2 min 0 min 496 W/m 31,4 km/h (5 Bft)
28.05.2015 09:34 16,9 C 15,6 C 66 % 0 lf 1013,5 hPa 0,0 l/m 2 min 0 min 533 W/m 27,2 km/h (4 Bft)
28.05.2015 09:36 16,9 C 15,6 C 65 % 0 lf 1013,5 hPa 0,0 l/m 2 min 0 min 308 W/m 29,3 km/h (5 Bft)
28.05.2015 09:38 16,9 C 15,6 C 66 % 0 lf 1013,5 hPa 0,0 l/m 2 min 0 min 344 W/m 20,9 km/h (4 Bft)
28.05.2015 09:40 16,9 C 15,6 C 66 % 0 lf 1013,5 hPa 0,0 l/m 2 min 0 min 433 W/m 29,3 km/h (5 Bft)
28.05.2015 09:42 16,9 C 15,6 C 66 % 0 lf 1013,4 hPa 0,0 l/m 2 min 0 min 718 W/m 31,4 km/h (5 Bft)
28.05.2015 09:44 16,9 C 15,6 C 66 % 0 lf 1013,4 hPa 0,0 l/m 2 min 0 min 454 W/m 29,3 km/h (5 Bft)
28.05.2015 09:46 16,9 C 15,6 C 66 % 0 lf 1013,5 hPa 0,0 l/m 0 min 0 min 285 W/m 27,2 km/h (4 Bft)
28.05.2015 09:48 16,8 C 15,6 C 66 % 0 lf 1013,5 hPa 0,0 l/m 0 min 0 min 262 W/m 20,9 km/h (4 Bft)
28.05.2015 09:50 16,8 C 15,6 C 67 % 0 lf 1013,6 hPa 0,0 l/m 0 min 0 min 235 W/m 25,1 km/h (4 Bft)
28.05.2015 09:52 16,8 C 15,6 C 67 % 0 lf 1013,6 hPa 0,0 l/m 0 min 0 min 233 W/m 29,3 km/h (5 Bft)
28.05.2015 09:54 16,7 C 15,6 C 67 % 0 lf 1013,6 hPa 0,0 l/m 0 min 0 min 243 W/m 33,5 km/h (5 Bft)
28.05.2015 09:56 16,7 C 15,6 C 67 % 0 lf 1013,5 hPa 0,0 l/m 0 min 0 min 236 W/m 27,2 km/h (4 Bft)
28.05.2015 09:58 16,7 C 15,6 C 67 % 0 lf 1013,5 hPa 0,0 l/m 0 min 0 min 205 W/m 25,1 km/h (4 Bft)
28.05.2015 10:00 16,6 C 15,6 C 67 % 0 lf 1013,5 hPa 0,0 l/m 0 min 0 min 209 W/m 25,1 km/h (4 Bft)
28.05.2015 10:02 16,6 C 15,6 C 67 % 0 lf 1013,4 hPa 0,0 l/m 0 min 0 min 246 W/m 20,9 km/h (4 Bft)
28.05.2015 10:04 16,6 C 15,6 C 68 % 0 lf 1013,4 hPa 0,0 l/m 0 min 0 min 266 W/m 20,9 km/h (4 Bft)
28.05.2015 10:06 16,6 C 15,6 C 68 % 0 lf 1013,4 hPa 0,0 l/m 0 min 0 min 233 W/m 18,8 km/h (3 Bft)
28.05.2015 10:08 16,5 C 15,6 C 68 % 0 lf 1013,4 hPa 0,0 l/m 0 min 0 min 192 W/m 35,6 km/h (5 Bft)
28.05.2015 10:10 16,4 C 15,0 C 68 % 0 lf 1013,4 hPa 0,0 l/m 0 min 0 min 182 W/m 35,6 km/h (5 Bft)
28.05.2015 10:12 16,4 C 15,0 C 68 % 0 lf 1013,4 hPa 0,0 l/m 0 min 0 min 219 W/m 20,9 km/h (4 Bft)
28.05.2015 10:14 16,4 C 15,6 C 68 % 0 lf 1013,4 hPa 0,0 l/m 0 min 0 min 288 W/m 31,4 km/h (5 Bft)
28.05.2015 10:16 16,4 C 15,6 C 69 % 0 lf 1013,4 hPa 0,0 l/m 2 min 0 min 410 W/m 29,3 km/h (5 Bft)
28.05.2015 10:18 16,4 C 16,1 C 69 % 0 lf 1013,4 hPa 0,0 l/m 2 min 0 min 418 W/m 35,6 km/h (5 Bft)
28.05.2015 10:20 16,4 C 15,6 C 68 % 0 lf 1013,5 hPa 0,0 l/m 2 min 0 min 364 W/m 35,6 km/h (5 Bft)
28.05.2015 10:22 16,4 C 16,1 C 69 % 0 lf 1013,4 hPa 0,0 l/m 2 min 0 min 375 W/m 39,7 km/h (6 Bft)
28.05.2015 10:24 16,4 C 16,1 C 68 % 0 lf 1013,4 hPa 0,0 l/m 2 min 0 min 357 W/m 37,7 km/h (5 Bft)
28.05.2015 10:26 16,4 C 16,1 C 68 % 0 lf 1013,5 hPa 0,0 l/m 2 min 0 min 351 W/m 25,1 km/h (4 Bft)
28.05.2015 10:28 16,5 C 16,1 C 68 % 0 lf 1013,4 hPa 0,0 l/m 2 min 0 min 344 W/m 39,7 km/h (6 Bft)
28.05.2015 10:30 16,5 C 16,1 C 68 % 0 lf 1013,3 hPa 0,0 l/m 2 min 0 min 338 W/m 31,4 km/h (5 Bft)
28.05.2015 10:32 16,5 C 16,1 C 68 % 0 lf 1013,4 hPa 0,0 l/m 2 min 0 min 387 W/m 25,1 km/h (4 Bft)
28.05.2015 10:34 16,6 C 16,1 C 68 % 0 lf 1013,3 hPa 0,0 l/m 2 min 0 min 391 W/m 20,9 km/h (4 Bft)
28.05.2015 10:36 16,6 C 16,1 C 69 % 0 lf 1013,3 hPa 0,0 l/m 2 min 0 min 513 W/m 27,2 km/h (4 Bft)
28.05.2015 10:38 16,7 C 16,1 C 69 % 0 lf 1013,3 hPa 0,0 l/m 2 min 0 min 677 W/m 25,1 km/h (4 Bft)
28.05.2015 10:40 16,9 C 16,7 C 69 % 0 lf 1013,3 hPa 0,0 l/m 2 min 0 min 826 W/m 20,9 km/h (4 Bft)
28.05.2015 10:42 17,0 C 17,2 C 69 % 0 lf 1013,4 hPa 0,0 l/m 2 min 0 min 830 W/m 14,6 km/h (3 Bft)
28.05.2015 10:44 17,2 C 17,2 C 70 % 0 lf 1013,3 hPa 0,0 l/m 2 min 0 min 568 W/m 14,6 km/h (3 Bft)
28.05.2015 10:46 17,3 C 17,2 C 69 % 0 lf 1013,4 hPa 0,0 l/m 2 min 0 min 480 W/m 20,9 km/h (4 Bft)
28.05.2015 10:48 17,4 C 17,8 C 69 % 0 lf 1013,4 hPa 0,0 l/m 2 min 0 min 480 W/m 33,5 km/h (5 Bft)
28.05.2015 10:50 17,6 C 17,2 C 66 % 0 lf 1013,4 hPa 0,0 l/m 2 min 0 min 450 W/m 33,5 km/h (5 Bft)
28.05.2015 10:52 17,6 C 17,2 C 65 % 0 lf 1013,3 hPa 0,0 l/m 2 min 0 min 429 W/m 35,6 km/h (5 Bft)
28.05.2015 10:54 17,7 C 17,2 C 65 % 0 lf 1013,3 hPa 0,0 l/m 2 min 0 min 423 W/m 27,2 km/h (4 Bft)
28.05.2015 10:56 17,7 C 17,2 C 64 % 0 lf 1013,3 hPa 0,0 l/m 0 min 0 min 317 W/m 31,4 km/h (5 Bft)
28.05.2015 10:58 17,7 C 16,7 C 65 % 0 lf 1013,3 hPa 0,0 l/m 0 min 0 min 313 W/m 35,6 km/h (5 Bft)
28.05.2015 11:00 17,7 C 16,7 C 64 % 0 lf 1013,3 hPa 0,0 l/m 2 min 0 min 382 W/m 27,2 km/h (4 Bft)
28.05.2015 11:02 17,7 C 17,2 C 65 % 0 lf 1013,2 hPa 0,0 l/m 2 min 0 min 422 W/m 23,0 km/h (4 Bft)
28.05.2015 11:04 17,7 C 17,2 C 65 % 0 lf 1013,2 hPa 0,0 l/m 2 min 0 min 485 W/m 33,5 km/h (5 Bft)
28.05.2015 11:06 17,6 C 17,2 C 64 % 0 lf 1013,2 hPa 0,0 l/m 2 min 0 min 504 W/m 37,7 km/h (5 Bft)
28.05.2015 11:08 17,6 C 17,2 C 63 % 0 lf 1013,2 hPa 0,0 l/m 2 min 0 min 399 W/m 31,4 km/h (5 Bft)
28.05.2015 11:10 17,6 C 17,2 C 64 % 0 lf 1013,1 hPa 0,0 l/m 2 min 0 min 395 W/m 23,0 km/h (4 Bft)
28.05.2015 11:12 17,5 C 16,7 C 62 % 0 lf 1013,2 hPa 0,0 l/m 2 min 0 min 417 W/m 46,0 km/h (6 Bft)
28.05.2015 11:14 17,4 C 16,7 C 62 % 0 lf 1013,2 hPa 0,0 l/m 2 min 0 min 408 W/m 27,2 km/h (4 Bft)
28.05.2015 11:16 17,4 C 16,7 C 62 % 0 lf 1013,2 hPa 0,0 l/m 0 min 0 min 345 W/m 23,0 km/h (4 Bft)
28.05.2015 11:18 17,4 C 16,7 C 63 % 0 lf 1013,2 hPa 0,0 l/m 0 min 0 min 286 W/m 29,3 km/h (5 Bft)
28.05.2015 11:20 17,4 C 16,7 C 63 % 0 lf 1013,2 hPa 0,0 l/m 0 min 0 min 257 W/m 27,2 km/h (4 Bft)
28.05.2015 11:22 17,3 C 16,7 C 63 % 0 lf 1013,2 hPa 0,0 l/m 0 min 0 min 260 W/m 27,2 km/h (4 Bft)
28.05.2015 11:24 17,3 C 16,1 C 63 % 0 lf 1013,2 hPa 0,0 l/m 0 min 0 min 270 W/m 27,2 km/h (4 Bft)
28.05.2015 11:26 17,3 C 16,7 C 63 % 0 lf 1013,2 hPa 0,0 l/m 0 min 0 min 290 W/m 16,7 km/h (3 Bft)
28.05.2015 11:28 17,3 C 16,7 C 64 % 0 lf 1013,1 hPa 0,0 l/m 0 min 0 min 312 W/m 27,2 km/h (4 Bft)
28.05.2015 11:30 17,3 C 16,7 C 64 % 0 lf 1013,2 hPa 0,0 l/m 0 min 0 min 305 W/m 25,1 km/h (4 Bft)
28.05.2015 11:32 17,3 C 16,7 C 63 % 0 lf 1013,2 hPa 0,0 l/m 0 min 0 min 264 W/m 31,4 km/h (5 Bft)
28.05.2015 11:34 17,3 C 16,7 C 63 % 0 lf 1013,2 hPa 0,0 l/m 0 min 0 min 269 W/m 25,1 km/h (4 Bft)
28.05.2015 11:36 17,2 C 16,7 C 63 % 0 lf 1013,2 hPa 0,0 l/m 0 min 0 min 267 W/m 25,1 km/h (4 Bft)
28.05.2015 11:38 17,2 C 16,7 C 63 % 0 lf 1013,2 hPa 0,0 l/m 0 min 0 min 218 W/m 27,2 km/h (4 Bft)
28.05.2015 11:40 17,2 C 16,1 C 63 % 0 lf 1013,2 hPa 0,0 l/m 0 min 0 min 201 W/m 27,2 km/h (4 Bft)
28.05.2015 11:42 17,2 C 16,1 C 62 % 0 lf 1013,2 hPa 0,0 l/m 0 min 0 min 223 W/m 23,0 km/h (4 Bft)
28.05.2015 11:44 17,2 C 16,1 C 63 % 0 lf 1013,2 hPa 0,0 l/m 0 min 0 min 249 W/m 29,3 km/h (5 Bft)
28.05.2015 11:46 17,1 C 16,1 C 62 % 0 lf 1013,2 hPa 0,0 l/m 0 min 0 min 252 W/m 27,2 km/h (4 Bft)
28.05.2015 11:48 17,1 C 16,1 C 63 % 0 lf 1013,2 hPa 0,0 l/m 0 min 0 min 255 W/m 25,1 km/h (4 Bft)
28.05.2015 11:50 17,1 C 16,7 C 62 % 0 lf 1013,2 hPa 0,0 l/m 0 min 0 min 271 W/m 29,3 km/h (5 Bft)
28.05.2015 11:52 17,1 C 16,7 C 63 % 0 lf 1013,2 hPa 0,0 l/m 0 min 0 min 316 W/m 29,3 km/h (5 Bft)
28.05.2015 11:54 17,2 C 16,7 C 62 % 0 lf 1013,2 hPa 0,0 l/m 0 min 0 min 345 W/m 27,2 km/h (4 Bft)
28.05.2015 11:56 17,2 C 16,7 C 63 % 0 lf 1013,2 hPa 0,0 l/m 2 min 0 min 421 W/m 20,9 km/h (4 Bft)
28.05.2015 11:58 17,3 C 17,2 C 63 % 0 lf 1013,2 hPa 0,0 l/m 2 min 0 min 515 W/m 35,6 km/h (5 Bft)
28.05.2015 12:00 17,4 C 17,2 C 61 % 0 lf 1013,2 hPa 0,0 l/m 2 min 0 min 522 W/m 29,3 km/h (5 Bft)
28.05.2015 12:02 17,4 C 17,2 C 62 % 0 lf 1013,2 hPa 0,0 l/m 2 min 0 min 499 W/m 41,8 km/h (6 Bft)
28.05.2015 12:06 17,6 C 17,2 C 60 % 0 lf 1013,1 hPa 0,0 l/m 2 min 0 min 419 W/m 37,7 km/h (5 Bft)
28.05.2015 12:08 17,7 C 17,2 C 61 % 0 lf 1013,2 hPa 0,0 l/m 2 min 0 min 486 W/m 23,0 km/h (4 Bft)
28.05.2015 12:10 17,9 C 17,8 C 60 % 0 lf 1013,1 hPa 0,0 l/m 2 min 0 min 585 W/m 46,0 km/h (6 Bft)
28.05.2015 12:12 18,1 C 18,3 C 59 % 0 lf 1013,1 hPa 0,0 l/m 2 min 0 min 600 W/m 35,6 km/h (5 Bft)
28.05.2015 12:14 18,2 C 18,3 C 59 % 0 lf 1013,0 hPa 0,0 l/m 2 min 0 min 516 W/m 25,1 km/h (4 Bft)
28.05.2015 12:16 18,3 C 18,3 C 59 % 0 lf 1013,1 hPa 0,0 l/m 2 min 0 min 458 W/m 35,6 km/h (5 Bft)
28.05.2015 12:18 18,4 C 18,3 C 59 % 0 lf 1013,1 hPa 0,0 l/m 2 min 0 min 510 W/m 25,1 km/h (4 Bft)
28.05.2015 12:20 18,5 C 18,3 C 59 % 0 lf 1013,1 hPa 0,0 l/m 2 min 0 min 650 W/m 29,3 km/h (5 Bft)
28.05.2015 12:22 18,7 C 18,9 C 60 % 0 lf 1013,1 hPa 0,0 l/m 2 min 0 min 715 W/m 31,4 km/h (5 Bft)
28.05.2015 12:24 18,8 C 18,9 C 58 % 0 lf 1013,1 hPa 0,0 l/m 2 min 0 min 615 W/m 23,0 km/h (4 Bft)
28.05.2015 12:26 18,8 C 18,9 C 57 % 0 lf 1013,1 hPa 0,0 l/m 2 min 0 min 412 W/m 25,1 km/h (4 Bft)
28.05.2015 12:28 18,9 C 18,3 C 57 % 0 lf 1013,1 hPa 0,0 l/m 2 min 0 min 426 W/m 31,4 km/h (5 Bft)
28.05.2015 12:30 18,9 C 18,3 C 58 % 0 lf 1013,1 hPa 0,0 l/m 2 min 0 min 467 W/m 29,3 km/h (5 Bft)
28.05.2015 12:32 18,9 C 18,3 C 57 % 0 lf 1013,1 hPa 0,0 l/m 2 min 0 min 572 W/m 31,4 km/h (5 Bft)
28.05.2015 12:34 18,9 C 18,3 C 56 % 0 lf 1013,2 hPa 0,0 l/m 2 min 0 min 585 W/m 29,3 km/h (5 Bft)
28.05.2015 12:36 18,9 C 18,3 C 56 % 0 lf 1013,1 hPa 0,0 l/m 2 min 0 min 450 W/m 27,2 km/h (4 Bft)
28.05.2015 12:38 18,9 C 18,9 C 56 % 0 lf 1013,1 hPa 0,0 l/m 2 min 0 min 816 W/m 41,8 km/h (6 Bft)
28.05.2015 12:40 19,0 C 18,9 C 56 % 0 lf 1013,1 hPa 0,0 l/m 2 min 0 min 1012 W/m 31,4 km/h (5 Bft)
28.05.2015 12:42 19,1 C 19,4 C 56 % 0 lf 1013,1 hPa 0,0 l/m 2 min 0 min 508 W/m 27,2 km/h (4 Bft)
28.05.2015 12:44 19,2 C 19,4 C 56 % 0 lf 1013,1 hPa 0,0 l/m 2 min 0 min 824 W/m 31,4 km/h (5 Bft)
28.05.2015 12:46 19,3 C 20,6 C 56 % 0 lf 1013,1 hPa 0,0 l/m 2 min 0 min 1125 W/m 31,4 km/h (5 Bft)
28.05.2015 12:48 19,4 C 21,1 C 55 % 0 lf 1013,1 hPa 0,0 l/m 2 min 0 min 1061 W/m 29,3 km/h (5 Bft)
28.05.2015 12:50 19,5 C 21,1 C 56 % 0 lf 1013,0 hPa 0,0 l/m 2 min 0 min 692 W/m 27,2 km/h (4 Bft)
28.05.2015 12:52 19,6 C 21,1 C 55 % 0 lf 1013,1 hPa 0,0 l/m 2 min 0 min 495 W/m 31,4 km/h (5 Bft)
28.05.2015 12:54 19,7 C 20,6 C 55 % 0 lf 1013,1 hPa 0,0 l/m 2 min 0 min 497 W/m 31,4 km/h (5 Bft)
28.05.2015 12:56 19,7 C 20,0 C 55 % 0 lf 1013,1 hPa 0,0 l/m 2 min 0 min 446 W/m 27,2 km/h (4 Bft)
28.05.2015 12:58 19,7 C 19,4 C 54 % 0 lf 1013,2 hPa 0,0 l/m 2 min 0 min 427 W/m 33,5 km/h (5 Bft)
28.05.2015 13:00 19,6 C 19,4 C 54 % 0 lf 1013,2 hPa 0,0 l/m 2 min 0 min 499 W/m 31,4 km/h (5 Bft)
28.05.2015 13:02 19,6 C 18,9 C 54 % 0 lf 1013,2 hPa 0,0 l/m 0 min 0 min 398 W/m 33,5 km/h (5 Bft)
28.05.2015 13:04 19,4 C 20,0 C 56 % 0 lf 1013,1 hPa 0,0 l/m 2 min 0 min 550 W/m 29,3 km/h (5 Bft)
28.05.2015 13:06 19,4 C 20,0 C 55 % 0 lf 1013,1 hPa 0,0 l/m 2 min 0 min 868 W/m 27,2 km/h (4 Bft)
28.05.2015 13:08 19,4 C 20,0 C 56 % 0 lf 1013,1 hPa 0,0 l/m 0 min 0 min 401 W/m 27,2 km/h (4 Bft)
28.05.2015 13:10 19,4 C 19,4 C 55 % 0 lf 1013,1 hPa 0,0 l/m 2 min 0 min 448 W/m 29,3 km/h (5 Bft)
28.05.2015 13:12 19,4 C 19,4 C 56 % 0 lf 1013,1 hPa 0,0 l/m 0 min 0 min 367 W/m 43,9 km/h (6 Bft)
28.05.2015 13:14 19,3 C 19,4 C 55 % 0 lf 1013,2 hPa 0,0 l/m 2 min 0 min 499 W/m 33,5 km/h (5 Bft)
28.05.2015 13:16 19,3 C 20,0 C 57 % 0 lf 1013,0 hPa 0,0 l/m 2 min 0 min 499 W/m 27,2 km/h (4 Bft)
28.05.2015 13:18 19,4 C 21,1 C 57 % 0 lf 1013,1 hPa 0,0 l/m 2 min 0 min 1019 W/m 31,4 km/h (5 Bft)
28.05.2015 13:20 19,6 C 21,1 C 57 % 0 lf 1013,1 hPa 0,0 l/m 2 min 0 min 1100 W/m 29,3 km/h (5 Bft)
28.05.2015 13:22 19,7 C 21,1 C 57 % 0 lf 1013,1 hPa 0,0 l/m 2 min 0 min 1090 W/m 35,6 km/h (5 Bft)
28.05.2015 13:24 19,8 C 21,1 C 56 % 0 lf 1013,1 hPa 0,0 l/m 2 min 0 min 1051 W/m 48,1 km/h (6 Bft)
28.05.2015 13:26 19,8 C 20,6 C 56 % 0 lf 1013,1 hPa 0,0 l/m 2 min 0 min 1007 W/m 35,6 km/h (5 Bft)
28.05.2015 13:28 19,9 C 20,6 C 57 % 0 lf 1013,1 hPa 0,0 l/m 2 min 0 min 885 W/m 33,5 km/h (5 Bft)
28.05.2015 13:30 19,9 C 20,6 C 56 % 0 lf 1013,1 hPa 0,0 l/m 2 min 0 min 684 W/m 33,5 km/h (5 Bft)
28.05.2015 13:32 19,9 C 20,6 C 57 % 0 lf 1013,1 hPa 0,0 l/m 2 min 0 min 633 W/m 29,3 km/h (5 Bft)
28.05.2015 13:34 19,9 C 20,0 C 55 % 0 lf 1013,0 hPa 0,0 l/m 2 min 0 min 460 W/m 39,7 km/h (6 Bft)
28.05.2015 13:36 19,7 C 20,0 C 56 % 0 lf 1013,1 hPa 0,0 l/m 2 min 0 min 581 W/m 37,7 km/h (5 Bft)
28.05.2015 13:38 19,7 C 20,0 C 56 % 0 lf 1013,1 hPa 0,0 l/m 2 min 0 min 509 W/m 39,7 km/h (6 Bft)
28.05.2015 13:40 19,6 C 19,4 C 56 % 0 lf 1013,0 hPa 0,0 l/m 0 min 0 min 413 W/m 35,6 km/h (5 Bft)
28.05.2015 13:42 19,4 C 18,9 C 57 % 0 lf 1013,0 hPa 0,0 l/m 0 min 0 min 340 W/m 35,6 km/h (5 Bft)
28.05.2015 13:44 19,3 C 18,3 C 57 % 0 lf 1013,1 hPa 0,0 l/m 0 min 0 min 274 W/m 43,9 km/h (6 Bft)
28.05.2015 13:46 19,1 C 17,8 C 56 % 0 lf 1013,0 hPa 0,0 l/m 0 min 0 min 283 W/m 46,0 km/h (6 Bft)
28.05.2015 13:48 18,9 C 18,3 C 57 % 0 lf 1013,1 hPa 0,0 l/m 0 min 0 min 327 W/m 37,7 km/h (5 Bft)
28.05.2015 13:50 18,8 C 18,3 C 58 % 0 lf 1013,1 hPa 0,0 l/m 0 min 0 min 418 W/m 35,6 km/h (5 Bft)
28.05.2015 13:52 18,8 C 18,3 C 58 % 0 lf 1013,1 hPa 0,0 l/m 2 min 0 min 603 W/m 23,0 km/h (4 Bft)
28.05.2015 13:54 18,8 C 18,3 C 58 % 0 lf 1013,1 hPa 0,0 l/m 0 min 0 min 311 W/m 33,5 km/h (5 Bft)
28.05.2015 13:56 18,7 C 17,8 C 57 % 0 lf 1013,2 hPa 0,0 l/m 0 min 0 min 242 W/m 43,9 km/h (6 Bft)
28.05.2015 13:58 18,6 C 17,8 C 58 % 0 lf 1013,2 hPa 0,0 l/m 0 min 0 min 202 W/m 31,4 km/h (5 Bft)
28.05.2015 14:00 18,5 C 17,2 C 58 % 0 lf 1013,2 hPa 0,0 l/m 0 min 0 min 185 W/m 29,3 km/h (5 Bft)
28.05.2015 14:02 18,4 C 17,2 C 59 % 0 lf 1013,2 hPa 0,0 l/m 0 min 0 min 202 W/m 25,1 km/h (4 Bft)
28.05.2015 14:04 18,3 C 17,2 C 60 % 0 lf 1013,2 hPa 0,0 l/m 0 min 0 min 258 W/m 23,0 km/h (4 Bft)
28.05.2015 14:06 18,3 C 17,2 C 60 % 0 lf 1013,2 hPa 0,0 l/m 0 min 0 min 280 W/m 35,6 km/h (5 Bft)
28.05.2015 14:08 18,2 C 17,2 C 60 % 0 lf 1013,2 hPa 0,0 l/m 0 min 0 min 263 W/m 25,1 km/h (4 Bft)
28.05.2015 14:10 18,2 C 17,2 C 61 % 0 lf 1013,2 hPa 0,0 l/m 0 min 0 min 189 W/m 27,2 km/h (4 Bft)
28.05.2015 14:12 18,1 C 17,2 C 62 % 0 lf 1013,2 hPa 0,0 l/m 0 min 0 min 126 W/m 29,3 km/h (5 Bft)
28.05.2015 14:14 18,0 C 16,7 C 62 % 0 lf 1013,3 hPa 0,0 l/m 0 min 0 min 97 W/m 29,3 km/h (5 Bft)
28.05.2015 14:16 17,9 C 16,7 C 63 % 0 lf 1013,2 hPa 0,0 l/m 0 min 0 min 121 W/m 18,8 km/h (3 Bft)
28.05.2015 14:18 17,8 C 16,7 C 63 % 0 lf 1013,1 hPa 0,0 l/m 0 min 2 min 201 W/m 20,9 km/h (4 Bft)
28.05.2015 14:20 17,8 C 16,7 C 64 % 0 lf 1013,1 hPa 0,0 l/m 0 min 2 min 280 W/m 18,8 km/h (3 Bft)
28.05.2015 14:22 17,8 C 16,7 C 64 % 0 lf 1013,2 hPa 0,0 l/m 0 min 0 min 272 W/m 33,5 km/h (5 Bft)
28.05.2015 14:24 17,7 C 16,7 C 64 % 0 lf 1013,2 hPa 0,0 l/m 0 min 0 min 299 W/m 29,3 km/h (5 Bft)
28.05.2015 14:26 17,7 C 16,7 C 65 % 0 lf 1013,2 hPa 0,0 l/m 0 min 0 min 314 W/m 33,5 km/h (5 Bft)
28.05.2015 14:28 17,7 C 17,2 C 66 % 0 lf 1013,2 hPa 0,0 l/m 0 min 0 min 323 W/m 31,4 km/h (5 Bft)
28.05.2015 14:30 17,7 C 17,2 C 66 % 0 lf 1013,2 hPa 0,0 l/m 0 min 0 min 365 W/m 23,0 km/h (4 Bft)
28.05.2015 14:32 17,7 C 17,8 C 66 % 0 lf 1013,2 hPa 0,0 l/m 0 min 0 min 374 W/m 29,3 km/h (5 Bft)
28.05.2015 14:34 17,8 C 18,3 C 67 % 0 lf 1013,1 hPa 0,0 l/m 2 min 0 min 674 W/m 31,4 km/h (5 Bft)
28.05.2015 14:36 18,0 C 18,9 C 66 % 0 lf 1013,1 hPa 0,0 l/m 2 min 0 min 1061 W/m 25,1 km/h (4 Bft)
28.05.2015 14:38 18,1 C 18,9 C 66 % 0 lf 1013,1 hPa 0,0 l/m 2 min 0 min 800 W/m 23,0 km/h (4 Bft)
28.05.2015 14:40 18,2 C 18,3 C 65 % 0 lf 1013,1 hPa 0,0 l/m 0 min 0 min 227 W/m 31,4 km/h (5 Bft)
28.05.2015 14:42 18,3 C 17,8 C 65 % 0 lf 1013,1 hPa 0,0 l/m 0 min 0 min 161 W/m 31,4 km/h (5 Bft)
28.05.2015 14:44 18,2 C 17,2 C 64 % 0 lf 1013,2 hPa 0,0 l/m 0 min 0 min 114 W/m 31,4 km/h (5 Bft)
28.05.2015 14:46 18,1 C 17,2 C 64 % 0 lf 1013,2 hPa 0,0 l/m 0 min 0 min 126 W/m 25,1 km/h (4 Bft)
28.05.2015 14:48 18,1 C 17,2 C 64 % 0 lf 1013,1 hPa 0,0 l/m 0 min 0 min 158 W/m 23,0 km/h (4 Bft)
28.05.2015 14:50 18,0 C 16,7 C 65 % 0 lf 1013,2 hPa 0,0 l/m 0 min 0 min 146 W/m 27,2 km/h (4 Bft)
28.05.2015 14:52 17,9 C 16,7 C 65 % 0 lf 1013,2 hPa 0,0 l/m 0 min 0 min 128 W/m 16,7 km/h (3 Bft)
28.05.2015 14:54 17,8 C 16,7 C 66 % 3 lf 1013,1 hPa 0,0 l/m 0 min 0 min 125 W/m 25,1 km/h (4 Bft)
28.05.2015 14:56 17,8 C 16,1 C 67 % 1 lf 1013,2 hPa 0,0 l/m 0 min 2 min 130 W/m 23,0 km/h (4 Bft)
28.05.2015 14:58 17,7 C 16,1 C 67 % 0 lf 1013,1 hPa 0,0 l/m 0 min 2 min 117 W/m 27,2 km/h (4 Bft)
28.05.2015 15:00 17,6 C 15,6 C 67 % 0 lf 1013,1 hPa 0,0 l/m 0 min 0 min 105 W/m 18,8 km/h (3 Bft)
28.05.2015 15:02 17,6 C 16,1 C 68 % 0 lf 1013,2 hPa 0,0 l/m 0 min 0 min 114 W/m 20,9 km/h (4 Bft)
28.05.2015 15:04 17,4 C 15,6 C 67 % 0 lf 1013,1 hPa 0,0 l/m 0 min 0 min 127 W/m 27,2 km/h (4 Bft)
28.05.2015 15:06 17,3 C 16,1 C 68 % 0 lf 1013,2 hPa 0,0 l/m 0 min 0 min 147 W/m 23,0 km/h (4 Bft)
28.05.2015 15:08 17,3 C 16,1 C 68 % 0 lf 1013,2 hPa 0,0 l/m 0 min 0 min 241 W/m 25,1 km/h (4 Bft)
28.05.2015 15:10 17,3 C 16,7 C 69 % 0 lf 1013,1 hPa 0,0 l/m 0 min 2 min 299 W/m 29,3 km/h (5 Bft)
28.05.2015 15:12 17,3 C 16,7 C 70 % 0 lf 1013,0 hPa 0,0 l/m 0 min 0 min 321 W/m 29,3 km/h (5 Bft)
28.05.2015 15:14 17,3 C 17,2 C 69 % 0 lf 1013,0 hPa 0,0 l/m 0 min 0 min 324 W/m 31,4 km/h (5 Bft)
28.05.2015 15:16 17,3 C 17,2 C 69 % 0 lf 1012,8 hPa 0,0 l/m 0 min 0 min 341 W/m 27,2 km/h (4 Bft)
28.05.2015 15:18 17,4 C 17,8 C 70 % 0 lf 1012,7 hPa 0,0 l/m 2 min 0 min 489 W/m 33,5 km/h (5 Bft)
28.05.2015 15:20 17,6 C 17,8 C 69 % 0 lf 1012,7 hPa 0,0 l/m 2 min 0 min 905 W/m 25,1 km/h (4 Bft)
28.05.2015 15:22 17,7 C 17,8 C 69 % 0 lf 1012,6 hPa 0,0 l/m 2 min 0 min 808 W/m 27,2 km/h (4 Bft)
28.05.2015 15:24 17,8 C 17,8 C 68 % 0 lf 1012,5 hPa 0,0 l/m 2 min 0 min 810 W/m 18,8 km/h (3 Bft)
28.05.2015 15:26 18,0 C 18,3 C 68 % 0 lf 1012,5 hPa 0,0 l/m 2 min 0 min 884 W/m 39,7 km/h (6 Bft)
28.05.2015 15:28 18,2 C 18,3 C 68 % 0 lf 1012,5 hPa 0,0 l/m 2 min 0 min 884 W/m 16,7 km/h (3 Bft)
28.05.2015 15:30 18,4 C 18,3 C 68 % 0 lf 1012,6 hPa 0,0 l/m 2 min 0 min 865 W/m 20,9 km/h (4 Bft)
28.05.2015 15:32 18,6 C 18,9 C 67 % 0 lf 1012,6 hPa 0,0 l/m 2 min 0 min 820 W/m 23,0 km/h (4 Bft)
28.05.2015 15:34 18,8 C 18,9 C 66 % 0 lf 1012,5 hPa 0,0 l/m 2 min 0 min 805 W/m 31,4 km/h (5 Bft)
28.05.2015 15:36 19,0 C 18,9 C 66 % 0 lf 1012,6 hPa 0,0 l/m 2 min 0 min 810 W/m 23,0 km/h (4 Bft)
28.05.2015 15:38 19,2 C 19,4 C 66 % 0 lf 1012,7 hPa 0,0 l/m 2 min 0 min 806 W/m 23,0 km/h (4 Bft)
28.05.2015 15:40 19,4 C 19,4 C 65 % 0 lf 1012,7 hPa 0,0 l/m 2 min 0 min 801 W/m 27,2 km/h (4 Bft)
28.05.2015 15:42 19,5 C 19,4 C 64 % 0 lf 1012,8 hPa 0,0 l/m 2 min 0 min 791 W/m 37,7 km/h (5 Bft)
28.05.2015 15:44 19,7 C 18,9 C 63 % 0 lf 1012,7 hPa 0,0 l/m 2 min 0 min 784 W/m 29,3 km/h (5 Bft)
28.05.2015 15:46 19,7 C 18,9 C 63 % 0 lf 1012,7 hPa 0,0 l/m 2 min 0 min 774 W/m 33,5 km/h (5 Bft)
28.05.2015 15:48 19,7 C 18,9 C 64 % 0 lf 1012,6 hPa 0,0 l/m 2 min 0 min 778 W/m 20,9 km/h (4 Bft)
28.05.2015 15:50 19,8 C 19,4 C 65 % 0 lf 1012,7 hPa 0,0 l/m 2 min 0 min 801 W/m 27,2 km/h (4 Bft)
28.05.2015 15:52 19,9 C 19,4 C 65 % 0 lf 1012,5 hPa 0,0 l/m 2 min 0 min 781 W/m 20,9 km/h (4 Bft)
28.05.2015 15:54 20,1 C 19,4 C 63 % 0 lf 1012,5 hPa 0,0 l/m 2 min 0 min 788 W/m 37,7 km/h (5 Bft)
28.05.2015 15:56 20,1 C 18,9 C 62 % 0 lf 1012,5 hPa 0,0 l/m 0 min 0 min 259 W/m 37,7 km/h (5 Bft)
28.05.2015 15:58 20,0 C 18,9 C 62 % 0 lf 1012,5 hPa 0,0 l/m 0 min 0 min 174 W/m 27,2 km/h (4 Bft)
28.05.2015 16:00 19,8 C 18,3 C 63 % 0 lf 1012,5 hPa 0,0 l/m 0 min 0 min 197 W/m 31,4 km/h (5 Bft)
28.05.2015 16:02 19,6 C 17,8 C 63 % 0 lf 1012,4 hPa 0,0 l/m 0 min 0 min 190 W/m 16,7 km/h (3 Bft)
28.05.2015 16:04 19,4 C 17,8 C 62 % 0 lf 1012,4 hPa 0,0 l/m 0 min 0 min 167 W/m 25,1 km/h (4 Bft)
28.05.2015 16:06 19,3 C 17,2 C 63 % 0 lf 1012,4 hPa 0,0 l/m 0 min 0 min 134 W/m 16,7 km/h (3 Bft)
28.05.2015 16:08 19,2 C 17,2 C 63 % 0 lf 1012,3 hPa 0,0 l/m 0 min 0 min 108 W/m 18,8 km/h (3 Bft)
28.05.2015 16:10 19,1 C 17,2 C 63 % 0 lf 1012,3 hPa 0,0 l/m 0 min 0 min 87 W/m 29,3 km/h (5 Bft)
28.05.2015 16:12 18,9 C 16,7 C 64 % 0 lf 1012,3 hPa 0,0 l/m 0 min 0 min 84 W/m 18,8 km/h (3 Bft)
28.05.2015 16:14 18,9 C 16,7 C 64 % 0 lf 1012,4 hPa 0,0 l/m 0 min 0 min 101 W/m 14,6 km/h (3 Bft)
28.05.2015 16:16 18,8 C 16,7 C 65 % 0 lf 1012,5 hPa 0,0 l/m 0 min 0 min 99 W/m 25,1 km/h (4 Bft)
28.05.2015 16:18 18,7 C 16,7 C 63 % 0 lf 1012,6 hPa 0,0 l/m 0 min 0 min 89 W/m 18,8 km/h (3 Bft)
28.05.2015 16:20 18,6 C 16,7 C 63 % 0 lf 1012,7 hPa 0,0 l/m 0 min 0 min 97 W/m 18,8 km/h (3 Bft)
28.05.2015 16:22 18,4 C 16,1 C 62 % 0 lf 1012,8 hPa 0,0 l/m 0 min 0 min 124 W/m 27,2 km/h (4 Bft)
28.05.2015 16:24 18,3 C 16,1 C 62 % 0 lf 1012,7 hPa 0,0 l/m 0 min 0 min 140 W/m 23,0 km/h (4 Bft)
28.05.2015 16:26 18,1 C 16,1 C 63 % 0 lf 1012,8 hPa 0,0 l/m 0 min 0 min 125 W/m 25,1 km/h (4 Bft)
28.05.2015 16:28 18,0 C 16,1 C 64 % 0 lf 1012,9 hPa 0,0 l/m 0 min 0 min 118 W/m 20,9 km/h (4 Bft)
28.05.2015 16:30 17,9 C 16,1 C 64 % 0 lf 1012,9 hPa 0,0 l/m 0 min 0 min 108 W/m 20,9 km/h (4 Bft)
28.05.2015 16:32 17,8 C 16,1 C 64 % 0 lf 1012,9 hPa 0,0 l/m 0 min 0 min 104 W/m 20,9 km/h (4 Bft)
28.05.2015 16:34 17,7 C 15,6 C 65 % 0 lf 1012,9 hPa 0,0 l/m 0 min 0 min 105 W/m 20,9 km/h (4 Bft)
28.05.2015 16:36 17,6 C 15,6 C 66 % 0 lf 1012,9 hPa 0,0 l/m 0 min 0 min 81 W/m 20,9 km/h (4 Bft)
28.05.2015 16:38 17,4 C 15,6 C 65 % 0 lf 1012,9 hPa 0,0 l/m 0 min 0 min 50 W/m 31,4 km/h (5 Bft)
28.05.2015 16:40 17,2 C 15,0 C 65 % 4 lf 1012,8 hPa 0,0 l/m 0 min 2 min 38 W/m 35,6 km/h (5 Bft)
28.05.2015 16:42 17,1 C 15,0 C 65 % 3 lf 1012,9 hPa 0,0 l/m 0 min 0 min 32 W/m 25,1 km/h (4 Bft)
28.05.2015 16:44 16,9 C 15,0 C 66 % 3 lf 1013,1 hPa 0,0 l/m 0 min 0 min 26 W/m 20,9 km/h (4 Bft)
28.05.2015 16:46 16,8 C 14,4 C 67 % 15 lf 1013,1 hPa 0,0 l/m 0 min 2 min 39 W/m 27,2 km/h (4 Bft)
28.05.2015 16:48 16,7 C 13,9 C 69 % 15 lf 1013,1 hPa 0,0 l/m 0 min 2 min 67 W/m 27,2 km/h (4 Bft)
28.05.2015 16:50 16,6 C 13,9 C 70 % 15 lf 1013,1 hPa 0,0 l/m 0 min 2 min 79 W/m 25,1 km/h (4 Bft)
28.05.2015 16:52 16,4 C 13,3 C 72 % 15 lf 1013,2 hPa 0,0 l/m 0 min 2 min 48 W/m 25,1 km/h (4 Bft)
28.05.2015 16:54 16,2 C 12,8 C 73 % 15 lf 1013,2 hPa 0,0 l/m 0 min 2 min 34 W/m 23,0 km/h (4 Bft)
28.05.2015 16:56 16,1 C 12,8 C 74 % 15 lf 1013,1 hPa 0,0 l/m 0 min 2 min 34 W/m 23,0 km/h (4 Bft)
28.05.2015 16:58 15,9 C 12,8 C 74 % 15 lf 1013,0 hPa 0,0 l/m 0 min 2 min 37 W/m 31,4 km/h (5 Bft)
28.05.2015 17:00 15,8 C 12,8 C 76 % 15 lf 1013,0 hPa 0,0 l/m 0 min 2 min 44 W/m 20,9 km/h (4 Bft)
28.05.2015 17:02 15,6 C 12,8 C 77 % 15 lf 1013,0 hPa 0,0 l/m 0 min 2 min 60 W/m 16,7 km/h (3 Bft)
28.05.2015 17:04 15,4 C 12,8 C 77 % 15 lf 1013,0 hPa 0,0 l/m 0 min 2 min 72 W/m 23,0 km/h (4 Bft)
28.05.2015 17:06 15,3 C 12,8 C 78 % 15 lf 1013,0 hPa 0,0 l/m 0 min 0 min 92 W/m 23,0 km/h (4 Bft)
28.05.2015 17:08 15,2 C 12,8 C 78 % 15 lf 1013,0 hPa 0,0 l/m 0 min 0 min 94 W/m 20,9 km/h (4 Bft)
28.05.2015 17:10 15,0 C 12,8 C 79 % 15 lf 1013,0 hPa 0,0 l/m 0 min 0 min 108 W/m 14,6 km/h (3 Bft)
28.05.2015 17:12 14,9 C 12,8 C 80 % 15 lf 1013,0 hPa 0,0 l/m 0 min 0 min 153 W/m 14,6 km/h (3 Bft)
28.05.2015 17:14 14,8 C 12,8 C 80 % 15 lf 1013,1 hPa 0,0 l/m 0 min 0 min 167 W/m 16,7 km/h (3 Bft)
28.05.2015 17:16 14,8 C 13,3 C 81 % 15 lf 1013,1 hPa 0,0 l/m 0 min 0 min 151 W/m 14,6 km/h (3 Bft)
28.05.2015 17:18 14,7 C 13,3 C 81 % 15 lf 1013,2 hPa 0,0 l/m 0 min 0 min 156 W/m 10,5 km/h (2 Bft)
28.05.2015 17:20 14,7 C 13,3 C 82 % 15 lf 1013,2 hPa 0,0 l/m 0 min 0 min 159 W/m 16,7 km/h (3 Bft)
28.05.2015 17:22 14,7 C 13,3 C 82 % 15 lf 1013,1 hPa 0,0 l/m 0 min 0 min 164 W/m 25,1 km/h (4 Bft)
28.05.2015 17:24 14,6 C 13,3 C 83 % 15 lf 1013,2 hPa 0,0 l/m 0 min 0 min 169 W/m 12,6 km/h (3 Bft)
28.05.2015 17:26 14,6 C 13,3 C 83 % 14 lf 1013,2 hPa 0,0 l/m 0 min 0 min 129 W/m 16,7 km/h (3 Bft)
28.05.2015 17:28 14,6 C 13,3 C 83 % 8 lf 1013,2 hPa 0,0 l/m 0 min 0 min 116 W/m 16,7 km/h (3 Bft)
28.05.2015 17:30 14,5 C 13,3 C 82 % 2 lf 1013,2 hPa 0,0 l/m 0 min 2 min 125 W/m 23,0 km/h (4 Bft)
28.05.2015 17:32 14,5 C 13,3 C 82 % 4 lf 1013,2 hPa 0,0 l/m 0 min 2 min 138 W/m 16,7 km/h (3 Bft)
28.05.2015 17:34 14,5 C 13,3 C 83 % 4 lf 1013,3 hPa 0,0 l/m 0 min 2 min 131 W/m 18,8 km/h (3 Bft)
28.05.2015 17:36 14,6 C 13,3 C 83 % 10 lf 1013,4 hPa 0,0 l/m 0 min 2 min 118 W/m 10,5 km/h (2 Bft)
28.05.2015 17:38 14,5 C 13,3 C 83 % 15 lf 1013,3 hPa 0,0 l/m 0 min 2 min 108 W/m 31,4 km/h (5 Bft)
28.05.2015 17:40 14,5 C 12,8 C 83 % 15 lf 1013,3 hPa 0,0 l/m 0 min 2 min 96 W/m 29,3 km/h (5 Bft)
28.05.2015 17:42 14,4 C 12,8 C 83 % 15 lf 1013,3 hPa 0,0 l/m 0 min 2 min 86 W/m 20,9 km/h (4 Bft)
28.05.2015 17:44 14,4 C 12,8 C 83 % 15 lf 1013,3 hPa 0,0 l/m 0 min 2 min 83 W/m 25,1 km/h (4 Bft)
28.05.2015 17:46 14,3 C 12,8 C 84 % 15 lf 1013,2 hPa 0,0 l/m 0 min 2 min 86 W/m 14,6 km/h (3 Bft)
28.05.2015 17:48 14,2 C 12,8 C 84 % 15 lf 1013,3 hPa 0,2 l/m 0 min 2 min 84 W/m 20,9 km/h (4 Bft)
28.05.2015 17:50 14,2 C 12,8 C 84 % 15 lf 1013,3 hPa 0,0 l/m 0 min 2 min 84 W/m 20,9 km/h (4 Bft)
28.05.2015 17:52 14,2 C 12,8 C 85 % 15 lf 1013,2 hPa 0,0 l/m 0 min 2 min 90 W/m 18,8 km/h (3 Bft)
28.05.2015 17:54 14,2 C 12,8 C 85 % 15 lf 1013,2 hPa 0,0 l/m 0 min 2 min 94 W/m 20,9 km/h (4 Bft)
28.05.2015 17:56 14,1 C 12,2 C 85 % 15 lf 1013,1 hPa 0,0 l/m 0 min 2 min 94 W/m 18,8 km/h (3 Bft)
28.05.2015 17:58 14,1 C 12,2 C 85 % 15 lf 1013,1 hPa 0,0 l/m 0 min 2 min 91 W/m 16,7 km/h (3 Bft)
28.05.2015 18:00 14,0 C 12,2 C 86 % 15 lf 1013,1 hPa 0,0 l/m 0 min 2 min 88 W/m 12,6 km/h (3 Bft)
28.05.2015 18:02 14,0 C 12,8 C 86 % 15 lf 1013,0 hPa 0,0 l/m 0 min 2 min 93 W/m 12,6 km/h (3 Bft)
28.05.2015 18:06 13,9 C 12,8 C 86 % 15 lf 1013,1 hPa 0,0 l/m 0 min 0 min 96 W/m 14,6 km/h (3 Bft)
28.05.2015 18:08 13,9 C 12,8 C 87 % 15 lf 1013,0 hPa 0,0 l/m 0 min 0 min 97 W/m 16,7 km/h (3 Bft)
28.05.2015 18:10 13,9 C 12,8 C 87 % 15 lf 1013,1 hPa 0,2 l/m 0 min 0 min 106 W/m 16,7 km/h (3 Bft)
28.05.2015 18:12 13,8 C 12,8 C 87 % 15 lf 1013,0 hPa 0,0 l/m 0 min 0 min 114 W/m 14,6 km/h (3 Bft)
28.05.2015 18:14 13,8 C 12,8 C 87 % 15 lf 1013,0 hPa 0,0 l/m 0 min 0 min 114 W/m 14,6 km/h (3 Bft)
28.05.2015 18:16 13,8 C 12,8 C 87 % 15 lf 1013,1 hPa 0,0 l/m 0 min 0 min 113 W/m 10,5 km/h (2 Bft)
28.05.2015 18:18 13,8 C 12,8 C 88 % 15 lf 1013,1 hPa 0,0 l/m 0 min 0 min 120 W/m 12,6 km/h (3 Bft)
28.05.2015 18:20 13,8 C 12,8 C 88 % 15 lf 1013,1 hPa 0,0 l/m 0 min 0 min 109 W/m 14,6 km/h (3 Bft)
28.05.2015 18:22 13,8 C 12,8 C 88 % 15 lf 1013,1 hPa 0,0 l/m 0 min 0 min 81 W/m 10,5 km/h (2 Bft)
28.05.2015 18:24 13,8 C 12,8 C 88 % 15 lf 1013,1 hPa 0,0 l/m 0 min 0 min 53 W/m 14,6 km/h (3 Bft)
28.05.2015 18:26 13,8 C 12,8 C 88 % 15 lf 1013,1 hPa 0,0 l/m 0 min 0 min 41 W/m 12,6 km/h (3 Bft)
28.05.2015 18:28 13,8 C 12,8 C 88 % 15 lf 1013,2 hPa 0,0 l/m 0 min 0 min 38 W/m 12,6 km/h (3 Bft)
28.05.2015 18:30 13,8 C 12,8 C 88 % 15 lf 1013,2 hPa 0,0 l/m 0 min 0 min 52 W/m 16,7 km/h (3 Bft)
28.05.2015 18:32 13,8 C 12,8 C 88 % 15 lf 1013,1 hPa 0,0 l/m 0 min 2 min 87 W/m 12,6 km/h (3 Bft)
28.05.2015 18:34 13,8 C 12,8 C 88 % 15 lf 1013,1 hPa 0,0 l/m 0 min 2 min 129 W/m 12,6 km/h (3 Bft)
28.05.2015 18:36 13,9 C 12,8 C 88 % 15 lf 1013,2 hPa 0,0 l/m 0 min 2 min 145 W/m 10,5 km/h (2 Bft)
28.05.2015 18:38 13,9 C 12,8 C 89 % 15 lf 1013,1 hPa 0,0 l/m 0 min 2 min 120 W/m 12,6 km/h (3 Bft)
28.05.2015 18:40 13,9 C 12,8 C 89 % 15 lf 1013,2 hPa 0,0 l/m 0 min 0 min 90 W/m 14,6 km/h (3 Bft)
28.05.2015 18:42 13,9 C 12,8 C 89 % 15 lf 1013,2 hPa 0,0 l/m 0 min 0 min 54 W/m 8,4 km/h (2 Bft)
28.05.2015 18:44 13,9 C 12,8 C 89 % 15 lf 1013,3 hPa 0,0 l/m 0 min 0 min 39 W/m 12,6 km/h (3 Bft)
28.05.2015 18:46 13,9 C 12,8 C 89 % 15 lf 1013,3 hPa 0,0 l/m 0 min 2 min 36 W/m 14,6 km/h (3 Bft)
28.05.2015 18:48 14,0 C 12,8 C 89 % 15 lf 1013,2 hPa 0,0 l/m 0 min 2 min 43 W/m 14,6 km/h (3 Bft)
28.05.2015 18:50 14,0 C 12,8 C 89 % 15 lf 1013,2 hPa 0,0 l/m 0 min 2 min 53 W/m 14,6 km/h (3 Bft)
28.05.2015 18:52 14,0 C 12,8 C 89 % 15 lf 1013,2 hPa 0,0 l/m 0 min 2 min 46 W/m 12,6 km/h (3 Bft)
28.05.2015 18:54 14,0 C 12,8 C 89 % 15 lf 1013,4 hPa 0,0 l/m 0 min 2 min 39 W/m 14,6 km/h (3 Bft)
28.05.2015 18:56 14,0 C 12,8 C 89 % 15 lf 1013,5 hPa 0,0 l/m 0 min 2 min 39 W/m 10,5 km/h (2 Bft)
28.05.2015 18:58 14,0 C 12,8 C 89 % 15 lf 1013,4 hPa 0,0 l/m 0 min 2 min 43 W/m 16,7 km/h (3 Bft)
28.05.2015 19:00 14,0 C 12,8 C 89 % 15 lf 1013,4 hPa 0,0 l/m 0 min 2 min 44 W/m 14,6 km/h (3 Bft)
28.05.2015 19:02 14,0 C 12,8 C 90 % 15 lf 1013,3 hPa 0,2 l/m 0 min 2 min 40 W/m 18,8 km/h (3 Bft)
28.05.2015 19:04 13,9 C 12,2 C 90 % 15 lf 1013,2 hPa 0,0 l/m 0 min 2 min 34 W/m 12,6 km/h (3 Bft)
28.05.2015 19:06 13,9 C 12,2 C 90 % 15 lf 1013,3 hPa 0,0 l/m 0 min 2 min 27 W/m 12,6 km/h (3 Bft)
28.05.2015 19:08 13,9 C 12,2 C 90 % 15 lf 1013,4 hPa 0,0 l/m 0 min 2 min 23 W/m 8,4 km/h (2 Bft)
28.05.2015 19:10 13,9 C 12,8 C 90 % 15 lf 1013,4 hPa 0,0 l/m 0 min 2 min 19 W/m 12,6 km/h (3 Bft)
28.05.2015 19:12 13,8 C 12,2 C 90 % 15 lf 1013,3 hPa 0,0 l/m 0 min 0 min 17 W/m 10,5 km/h (2 Bft)
28.05.2015 19:14 13,8 C 12,2 C 90 % 15 lf 1013,4 hPa 0,0 l/m 0 min 0 min 16 W/m 12,6 km/h (3 Bft)
28.05.2015 19:16 13,7 C 12,2 C 90 % 15 lf 1013,4 hPa 0,0 l/m 0 min 0 min 18 W/m 10,5 km/h (2 Bft)
28.05.2015 19:18 13,7 C 12,2 C 90 % 15 lf 1013,4 hPa 0,0 l/m 0 min 0 min 20 W/m 8,4 km/h (2 Bft)
28.05.2015 19:20 13,7 C 12,2 C 90 % 15 lf 1013,4 hPa 0,0 l/m 0 min 0 min 27 W/m 6,3 km/h (2 Bft)
28.05.2015 19:22 13,7 C 12,2 C 90 % 15 lf 1013,3 hPa 0,0 l/m 0 min 0 min 36 W/m 6,3 km/h (2 Bft)
28.05.2015 19:24 13,7 C 12,2 C 90 % 15 lf 1013,3 hPa 0,0 l/m 0 min 2 min 44 W/m 4,2 km/h (1 Bft)
28.05.2015 19:26 13,7 C 12,8 C 90 % 15 lf 1013,3 hPa 0,0 l/m 0 min 2 min 48 W/m 4,2 km/h (1 Bft)
28.05.2015 19:28 13,6 C 12,8 C 90 % 15 lf 1013,4 hPa 0,0 l/m 0 min 2 min 52 W/m 4,2 km/h (1 Bft)
28.05.2015 19:30 13,6 C 12,8 C 90 % 15 lf 1013,3 hPa 0,0 l/m 0 min 0 min 67 W/m 4,2 km/h (1 Bft)
28.05.2015 19:32 13,6 C 12,8 C 90 % 15 lf 1013,3 hPa 0,0 l/m 0 min 0 min 77 W/m 4,2 km/h (1 Bft)
28.05.2015 19:34 13,6 C 12,8 C 90 % 15 lf 1013,3 hPa 0,0 l/m 0 min 0 min 76 W/m 6,3 km/h (2 Bft)
28.05.2015 19:36 13,6 C 12,8 C 90 % 15 lf 1013,3 hPa 0,0 l/m 0 min 0 min 72 W/m 2,1 km/h (1 Bft)
28.05.2015 19:38 13,6 C 12,8 C 90 % 15 lf 1013,3 hPa 0,0 l/m 0 min 0 min 63 W/m 4,2 km/h (1 Bft)
28.05.2015 19:40 13,6 C 12,8 C 90 % 15 lf 1013,3 hPa 0,0 l/m 0 min 0 min 55 W/m 4,2 km/h (1 Bft)
28.05.2015 19:42 13,6 C 12,8 C 90 % 15 lf 1013,3 hPa 0,0 l/m 0 min 0 min 49 W/m 4,2 km/h (1 Bft)
28.05.2015 19:44 13,6 C 12,8 C 91 % 15 lf 1013,3 hPa 0,0 l/m 0 min 0 min 41 W/m 4,2 km/h (1 Bft)
28.05.2015 19:46 13,7 C 12,8 C 91 % 15 lf 1013,3 hPa 0,0 l/m 0 min 0 min 28 W/m 4,2 km/h (1 Bft)
28.05.2015 19:48 13,7 C 12,8 C 91 % 15 lf 1013,3 hPa 0,0 l/m 0 min 0 min 20 W/m 4,2 km/h (1 Bft)
28.05.2015 19:50 13,7 C 12,8 C 91 % 15 lf 1013,3 hPa 0,0 l/m 0 min 0 min 22 W/m 2,1 km/h (1 Bft)
28.05.2015 19:52 13,7 C 12,8 C 91 % 15 lf 1013,3 hPa 0,0 l/m 0 min 0 min 22 W/m 6,3 km/h (2 Bft)
28.05.2015 19:54 13,7 C 12,2 C 91 % 15 lf 1013,3 hPa 0,0 l/m 0 min 0 min 21 W/m 4,2 km/h (1 Bft)
28.05.2015 19:56 13,7 C 12,2 C 91 % 15 lf 1013,4 hPa 0,0 l/m 0 min 0 min 23 W/m 8,4 km/h (2 Bft)
28.05.2015 19:58 13,7 C 12,2 C 91 % 15 lf 1013,4 hPa 0,0 l/m 0 min 0 min 27 W/m 6,3 km/h (2 Bft)
28.05.2015 20:00 13,7 C 12,2 C 91 % 15 lf 1013,4 hPa 0,0 l/m 0 min 0 min 27 W/m 6,3 km/h (2 Bft)
28.05.2015 20:02 13,7 C 12,8 C 91 % 15 lf 1013,4 hPa 0,0 l/m 0 min 0 min 23 W/m 6,3 km/h (2 Bft)
28.05.2015 20:04 13,7 C 12,2 C 91 % 15 lf 1013,5 hPa 0,0 l/m 0 min 0 min 17 W/m 8,4 km/h (2 Bft)
28.05.2015 20:06 13,7 C 12,2 C 91 % 15 lf 1013,4 hPa 0,0 l/m 0 min 0 min 19 W/m 8,4 km/h (2 Bft)
28.05.2015 20:08 13,7 C 12,2 C 91 % 15 lf 1013,4 hPa 0,0 l/m 0 min 2 min 24 W/m 8,4 km/h (2 Bft)
28.05.2015 20:10 13,7 C 12,2 C 91 % 15 lf 1013,4 hPa 0,0 l/m 0 min 2 min 29 W/m 6,3 km/h (2 Bft)
28.05.2015 20:12 13,6 C 12,2 C 91 % 15 lf 1013,4 hPa 0,0 l/m 0 min 2 min 31 W/m 8,4 km/h (2 Bft)
28.05.2015 20:14 13,6 C 12,2 C 91 % 15 lf 1013,4 hPa 0,0 l/m 0 min 0 min 41 W/m 6,3 km/h (2 Bft)
28.05.2015 20:16 13,6 C 12,2 C 91 % 15 lf 1013,4 hPa 0,0 l/m 0 min 0 min 51 W/m 4,2 km/h (1 Bft)
28.05.2015 20:18 13,6 C 12,8 C 91 % 15 lf 1013,4 hPa 0,0 l/m 0 min 0 min 52 W/m 4,2 km/h (1 Bft)
28.05.2015 20:20 13,6 C 12,2 C 91 % 15 lf 1013,4 hPa 0,0 l/m 0 min 0 min 48 W/m 6,3 km/h (2 Bft)
28.05.2015 20:22 13,6 C 12,2 C 91 % 15 lf 1013,4 hPa 0,0 l/m 0 min 0 min 47 W/m 8,4 km/h (2 Bft)
28.05.2015 20:24 13,6 C 12,2 C 91 % 15 lf 1013,4 hPa 0,0 l/m 0 min 0 min 47 W/m 8,4 km/h (2 Bft)
28.05.2015 20:26 13,6 C 12,2 C 91 % 15 lf 1013,4 hPa 0,0 l/m 0 min 0 min 46 W/m 6,3 km/h (2 Bft)
28.05.2015 20:28 13,6 C 12,2 C 91 % 15 lf 1013,4 hPa 0,0 l/m 0 min 0 min 46 W/m 6,3 km/h (2 Bft)
28.05.2015 20:30 13,6 C 12,2 C 91 % 15 lf 1013,3 hPa 0,0 l/m 0 min 0 min 46 W/m 6,3 km/h (2 Bft)
28.05.2015 20:32 13,5 C 12,2 C 91 % 15 lf 1013,4 hPa 0,0 l/m 0 min 0 min 42 W/m 6,3 km/h (2 Bft)
28.05.2015 20:34 13,5 C 12,2 C 91 % 15 lf 1013,4 hPa 0,0 l/m 0 min 0 min 36 W/m 8,4 km/h (2 Bft)
28.05.2015 20:36 13,5 C 12,2 C 91 % 15 lf 1013,4 hPa 0,0 l/m 0 min 0 min 32 W/m 6,3 km/h (2 Bft)
28.05.2015 20:38 13,5 C 12,2 C 91 % 15 lf 1013,4 hPa 0,0 l/m 0 min 0 min 28 W/m 8,4 km/h (2 Bft)
28.05.2015 20:40 13,4 C 12,2 C 91 % 15 lf 1013,5 hPa 0,0 l/m 0 min 0 min 26 W/m 8,4 km/h (2 Bft)
28.05.2015 20:42 13,4 C 12,2 C 91 % 15 lf 1013,4 hPa 0,0 l/m 0 min 0 min 23 W/m 10,5 km/h (2 Bft)
28.05.2015 20:44 13,4 C 12,2 C 91 % 15 lf 1013,4 hPa 0,0 l/m 0 min 0 min 18 W/m 10,5 km/h (2 Bft)
28.05.2015 20:46 13,4 C 12,2 C 91 % 15 lf 1013,5 hPa 0,0 l/m 0 min 0 min 16 W/m 8,4 km/h (2 Bft)
28.05.2015 20:48 13,4 C 12,2 C 91 % 15 lf 1013,5 hPa 0,0 l/m 0 min 0 min 18 W/m 10,5 km/h (2 Bft)
28.05.2015 20:50 13,4 C 12,2 C 91 % 15 lf 1013,5 hPa 0,0 l/m 0 min 0 min 19 W/m 8,4 km/h (2 Bft)
28.05.2015 20:52 13,4 C 12,2 C 91 % 15 lf 1013,5 hPa 0,0 l/m 0 min 0 min 21 W/m 6,3 km/h (2 Bft)
28.05.2015 20:54 13,3 C 12,2 C 91 % 15 lf 1013,5 hPa 0,0 l/m 0 min 0 min 23 W/m 6,3 km/h (2 Bft)
28.05.2015 20:56 13,3 C 12,2 C 91 % 15 lf 1013,5 hPa 0,0 l/m 0 min 0 min 23 W/m 6,3 km/h (2 Bft)
28.05.2015 20:58 13,3 C 12,2 C 91 % 15 lf 1013,5 hPa 0,0 l/m 0 min 0 min 23 W/m 4,2 km/h (1 Bft)
28.05.2015 21:00 13,3 C 12,2 C 91 % 15 lf 1013,5 hPa 0,0 l/m 0 min 0 min 22 W/m 4,2 km/h (1 Bft)
28.05.2015 21:02 13,3 C 12,2 C 91 % 15 lf 1013,5 hPa 0,0 l/m 0 min 0 min 21 W/m 4,2 km/h (1 Bft)
28.05.2015 21:04 13,3 C 12,2 C 92 % 15 lf 1013,5 hPa 0,0 l/m 0 min 0 min 19 W/m 6,3 km/h (2 Bft)
28.05.2015 21:06 13,3 C 12,2 C 92 % 15 lf 1013,5 hPa 0,0 l/m 0 min 0 min 19 W/m 4,2 km/h (1 Bft)
28.05.2015 21:08 13,3 C 12,2 C 92 % 15 lf 1013,5 hPa 0,0 l/m 0 min 0 min 18 W/m 4,2 km/h (1 Bft)
28.05.2015 21:10 13,2 C 12,2 C 92 % 15 lf 1013,5 hPa 0,0 l/m 0 min 0 min 16 W/m 4,2 km/h (1 Bft)
28.05.2015 21:12 13,2 C 12,2 C 92 % 15 lf 1013,5 hPa 0,0 l/m 0 min 0 min 13 W/m 6,3 km/h (2 Bft)
28.05.2015 21:14 13,2 C 12,2 C 92 % 15 lf 1013,5 hPa 0,0 l/m 0 min 0 min 11 W/m 4,2 km/h (1 Bft)
28.05.2015 21:16 13,2 C 12,2 C 92 % 15 lf 1013,5 hPa 0,0 l/m 0 min 0 min 8 W/m 6,3 km/h (2 Bft)
28.05.2015 21:18 13,2 C 12,2 C 91 % 15 lf 1013,5 hPa 0,0 l/m 0 min 0 min 6 W/m 4,2 km/h (1 Bft)
28.05.2015 21:20 13,2 C 12,2 C 91 % 15 lf 1013,6 hPa 0,0 l/m 0 min 0 min 5 W/m 4,2 km/h (1 Bft)
28.05.2015 21:22 13,2 C 12,2 C 91 % 15 lf 1013,6 hPa 0,0 l/m 0 min 0 min 5 W/m 4,2 km/h (1 Bft)
28.05.2015 21:24 13,2 C 12,2 C 91 % 15 lf 1013,6 hPa 0,0 l/m 0 min 0 min 5 W/m 4,2 km/h (1 Bft)
28.05.2015 21:26 13,1 C 12,2 C 91 % 15 lf 1013,6 hPa 0,0 l/m 0 min 0 min 0 W/m 6,3 km/h (2 Bft)
28.05.2015 21:28 13,1 C 12,2 C 91 % 15 lf 1013,7 hPa 0,0 l/m 0 min 0 min 0 W/m 6,3 km/h (2 Bft)
28.05.2015 21:30 13,1 C 12,2 C 91 % 15 lf 1013,7 hPa 0,0 l/m 0 min 0 min 0 W/m 8,4 km/h (2 Bft)
28.05.2015 21:32 13,1 C 12,2 C 91 % 15 lf 1013,7 hPa 0,0 l/m 0 min 0 min 0 W/m 6,3 km/h (2 Bft)
28.05.2015 21:34 13,1 C 12,2 C 91 % 15 lf 1013,8 hPa 0,0 l/m 0 min 0 min 0 W/m 4,2 km/h (1 Bft)
28.05.2015 21:36 13,1 C 12,2 C 91 % 15 lf 1013,9 hPa 0,0 l/m 0 min 0 min 0 W/m 6,3 km/h (2 Bft)
28.05.2015 21:38 13,1 C 12,2 C 91 % 15 lf 1013,8 hPa 0,0 l/m 0 min 0 min 0 W/m 8,4 km/h (2 Bft)
28.05.2015 21:40 13,1 C 12,2 C 91 % 15 lf 1013,7 hPa 0,0 l/m 0 min 0 min 0 W/m 6,3 km/h (2 Bft)
28.05.2015 21:42 13,1 C 12,2 C 91 % 15 lf 1013,7 hPa 0,0 l/m 0 min 0 min 0 W/m 4,2 km/h (1 Bft)
28.05.2015 21:44 13,0 C 12,2 C 91 % 15 lf 1013,6 hPa 0,0 l/m 0 min 0 min 0 W/m 2,1 km/h (1 Bft)
28.05.2015 21:46 13,0 C 12,2 C 91 % 15 lf 1013,7 hPa 0,0 l/m 0 min 0 min 0 W/m 6,3 km/h (2 Bft)
28.05.2015 21:48 13,0 C 12,2 C 91 % 14 lf 1013,7 hPa 0,0 l/m 0 min 0 min 0 W/m 4,2 km/h (1 Bft)
28.05.2015 21:50 13,0 C 12,2 C 92 % 14 lf 1013,7 hPa 0,0 l/m 0 min 0 min 0 W/m 2,1 km/h (1 Bft)
28.05.2015 21:52 13,0 C 12,2 C 92 % 14 lf 1013,7 hPa 0,0 l/m 0 min 0 min 0 W/m 4,2 km/h (1 Bft)
28.05.2015 21:54 12,9 C 11,7 C 92 % 14 lf 1013,7 hPa 0,0 l/m 0 min 0 min 0 W/m 4,2 km/h (1 Bft)
28.05.2015 21:56 12,9 C 12,2 C 92 % 13 lf 1013,8 hPa 0,0 l/m 0 min 0 min 0 W/m 4,2 km/h (1 Bft)
28.05.2015 21:58 12,9 C 12,2 C 92 % 13 lf 1013,9 hPa 0,0 l/m 0 min 0 min 0 W/m 4,2 km/h (1 Bft)
28.05.2015 22:00 12,9 C 12,2 C 92 % 13 lf 1014,0 hPa 0,0 l/m 0 min 0 min 0 W/m 6,3 km/h (2 Bft)
28.05.2015 22:02 12,9 C 12,2 C 92 % 12 lf 1014,1 hPa 0,0 l/m 0 min 0 min 0 W/m 8,4 km/h (2 Bft)
28.05.2015 22:04 12,9 C 11,7 C 92 % 14 lf 1014,1 hPa 0,0 l/m 0 min 2 min 0 W/m 6,3 km/h (2 Bft)
28.05.2015 22:06 12,9 C 11,7 C 92 % 15 lf 1014,0 hPa 0,0 l/m 0 min 2 min 0 W/m 6,3 km/h (2 Bft)
28.05.2015 22:08 12,9 C 11,7 C 92 % 15 lf 1014,0 hPa 0,0 l/m 0 min 2 min 0 W/m 4,2 km/h (1 Bft)
28.05.2015 22:10 12,9 C 11,7 C 92 % 15 lf 1014,0 hPa 0,0 l/m 0 min 2 min 0 W/m 4,2 km/h (1 Bft)
28.05.2015 22:12 12,8 C 11,7 C 91 % 15 lf 1014,0 hPa 0,0 l/m 0 min 2 min 0 W/m 2,1 km/h (1 Bft)
28.05.2015 22:14 12,8 C 11,7 C 92 % 15 lf 1014,0 hPa 0,0 l/m 0 min 2 min 0 W/m 4,2 km/h (1 Bft)
28.05.2015 22:16 12,8 C 11,7 C 92 % 15 lf 1013,9 hPa 0,0 l/m 0 min 0 min 0 W/m 4,2 km/h (1 Bft)
28.05.2015 22:18 12,8 C 11,7 C 92 % 15 lf 1013,9 hPa 0,0 l/m 0 min 0 min 0 W/m 2,1 km/h (1 Bft)
28.05.2015 22:20 12,8 C 11,7 C 92 % 15 lf 1013,9 hPa 0,0 l/m 0 min 0 min 0 W/m 2,1 km/h (1 Bft)
28.05.2015 22:22 12,8 C 11,7 C 92 % 15 lf 1014,0 hPa 0,0 l/m 0 min 0 min 0 W/m 2,1 km/h (1 Bft)
28.05.2015 22:24 12,8 C 11,7 C 92 % 15 lf 1014,0 hPa 0,0 l/m 0 min 0 min 0 W/m 4,2 km/h (1 Bft)
28.05.2015 22:26 12,7 C 11,7 C 92 % 15 lf 1014,1 hPa 0,0 l/m 0 min 0 min 0 W/m 2,1 km/h (1 Bft)
28.05.2015 22:28 12,7 C 11,7 C 92 % 15 lf 1014,0 hPa 0,0 l/m 0 min 0 min 0 W/m 2,1 km/h (1 Bft)
28.05.2015 22:30 12,7 C 11,7 C 92 % 15 lf 1014,0 hPa 0,0 l/m 0 min 0 min 0 W/m 4,2 km/h (1 Bft)
28.05.2015 22:32 12,7 C 11,7 C 92 % 15 lf 1014,0 hPa 0,0 l/m 0 min 0 min 0 W/m 0,0 km/h (0 Bft)
28.05.2015 22:34 12,7 C 11,7 C 92 % 15 lf 1014,0 hPa 0,0 l/m 0 min 0 min 0 W/m 0,0 km/h (0 Bft)
28.05.2015 22:36 12,7 C 11,7 C 92 % 15 lf 1013,9 hPa 0,0 l/m 0 min 0 min 0 W/m 2,1 km/h (1 Bft)
28.05.2015 22:38 12,7 C 11,7 C 92 % 15 lf 1013,9 hPa 0,0 l/m 0 min 0 min 0 W/m 0,0 km/h (0 Bft)
28.05.2015 22:40 12,7 C 11,7 C 92 % 15 lf 1013,9 hPa 0,0 l/m 0 min 0 min 0 W/m 0,0 km/h (0 Bft)
28.05.2015 22:42 12,7 C 11,7 C 92 % 15 lf 1013,9 hPa 0,0 l/m 0 min 0 min 0 W/m 0,0 km/h (0 Bft)
28.05.2015 22:44 12,7 C 11,7 C 92 % 15 lf 1013,9 hPa 0,0 l/m 0 min 0 min 0 W/m 0,0 km/h (0 Bft)
28.05.2015 22:46 12,7 C 11,7 C 92 % 15 lf 1013,9 hPa 0,0 l/m 0 min 0 min 0 W/m 0,0 km/h (0 Bft)
28.05.2015 22:48 12,7 C 11,7 C 92 % 15 lf 1013,9 hPa 0,0 l/m 0 min 0 min 0 W/m 2,1 km/h (1 Bft)
28.05.2015 22:50 12,6 C 11,7 C 92 % 15 lf 1013,9 hPa 0,0 l/m 0 min 0 min 0 W/m 2,1 km/h (1 Bft)
28.05.2015 22:52 12,6 C 11,7 C 92 % 15 lf 1013,9 hPa 0,0 l/m 0 min 0 min 0 W/m 0,0 km/h (0 Bft)
28.05.2015 22:54 12,6 C 11,7 C 92 % 15 lf 1013,9 hPa 0,0 l/m 0 min 0 min 0 W/m 0,0 km/h (0 Bft)
28.05.2015 22:56 12,6 C 11,7 C 92 % 15 lf 1013,9 hPa 0,0 l/m 0 min 0 min 0 W/m 0,0 km/h (0 Bft)
28.05.2015 22:58 12,6 C 11,7 C 92 % 15 lf 1013,9 hPa 0,0 l/m 0 min 0 min 0 W/m 0,0 km/h (0 Bft)
28.05.2015 23:00 12,6 C 11,7 C 92 % 15 lf 1013,9 hPa 0,0 l/m 0 min 0 min 0 W/m 0,0 km/h (0 Bft)
28.05.2015 23:02 12,6 C 11,7 C 92 % 15 lf 1013,9 hPa 0,0 l/m 0 min 0 min 0 W/m 0,0 km/h (0 Bft)
28.05.2015 23:04 12,6 C 11,7 C 92 % 15 lf 1013,9 hPa 0,0 l/m 0 min 0 min 0 W/m 2,1 km/h (1 Bft)
28.05.2015 23:06 12,5 C 11,7 C 92 % 15 lf 1013,9 hPa 0,0 l/m 0 min 0 min 0 W/m 2,1 km/h (1 Bft)
28.05.2015 23:08 12,6 C 11,7 C 92 % 15 lf 1013,9 hPa 0,0 l/m 0 min 0 min 0 W/m 2,1 km/h (1 Bft)
28.05.2015 23:10 12,5 C 11,7 C 92 % 15 lf 1013,8 hPa 0,0 l/m 0 min 0 min 0 W/m 4,2 km/h (1 Bft)
28.05.2015 23:12 12,5 C 11,7 C 92 % 15 lf 1013,9 hPa 0,0 l/m 0 min 0 min 0 W/m 4,2 km/h (1 Bft)
28.05.2015 23:14 12,5 C 11,7 C 92 % 15 lf 1013,8 hPa 0,0 l/m 0 min 0 min 0 W/m 2,1 km/h (1 Bft)
28.05.2015 23:16 12,5 C 11,7 C 92 % 15 lf 1013,8 hPa 0,0 l/m 0 min 0 min 0 W/m 0,0 km/h (0 Bft)
28.05.2015 23:18 12,4 C 11,1 C 92 % 15 lf 1013,9 hPa 0,0 l/m 0 min 0 min 0 W/m 2,1 km/h (1 Bft)
28.05.2015 23:20 12,4 C 11,1 C 92 % 15 lf 1013,8 hPa 0,0 l/m 0 min 0 min 0 W/m 0,0 km/h (0 Bft)
28.05.2015 23:22 12,4 C 11,1 C 92 % 15 lf 1013,8 hPa 0,0 l/m 0 min 0 min 0 W/m 0,0 km/h (0 Bft)
28.05.2015 23:24 12,4 C 11,1 C 92 % 15 lf 1013,8 hPa 0,0 l/m 0 min 0 min 0 W/m 2,1 km/h (1 Bft)
28.05.2015 23:26 12,4 C 11,1 C 92 % 15 lf 1013,9 hPa 0,0 l/m 0 min 0 min 0 W/m 2,1 km/h (1 Bft)
28.05.2015 23:28 12,4 C 11,1 C 92 % 15 lf 1013,7 hPa 0,0 l/m 0 min 0 min 0 W/m 2,1 km/h (1 Bft)
28.05.2015 23:30 12,4 C 11,1 C 92 % 15 lf 1013,9 hPa 0,0 l/m 0 min 0 min 0 W/m 2,1 km/h (1 Bft)
28.05.2015 23:32 12,3 C 11,1 C 92 % 15 lf 1013,8 hPa 0,0 l/m 0 min 0 min 0 W/m 2,1 km/h (1 Bft)
28.05.2015 23:34 12,3 C 11,1 C 92 % 15 lf 1013,8 hPa 0,0 l/m 0 min 0 min 0 W/m 2,1 km/h (1 Bft)
28.05.2015 23:36 12,3 C 11,1 C 92 % 15 lf 1013,8 hPa 0,0 l/m 0 min 0 min 0 W/m 2,1 km/h (1 Bft)
28.05.2015 23:38 12,3 C 11,1 C 92 % 15 lf 1013,8 hPa 0,0 l/m 0 min 0 min 0 W/m 2,1 km/h (1 Bft)
28.05.2015 23:40 12,2 C 11,1 C 92 % 15 lf 1013,8 hPa 0,2 l/m 0 min 0 min 0 W/m 4,2 km/h (1 Bft)
28.05.2015 23:42 12,2 C 11,1 C 92 % 15 lf 1013,8 hPa 0,0 l/m 0 min 0 min 0 W/m 4,2 km/h (1 Bft)
28.05.2015 23:44 12,2 C 11,1 C 92 % 15 lf 1013,8 hPa 0,0 l/m 0 min 0 min 0 W/m 2,1 km/h (1 Bft)
28.05.2015 23:46 12,2 C 11,1 C 92 % 15 lf 1013,7 hPa 0,0 l/m 0 min 0 min 0 W/m 2,1 km/h (1 Bft)
28.05.2015 23:48 12,1 C 11,1 C 92 % 15 lf 1013,7 hPa 0,0 l/m 0 min 0 min 0 W/m 2,1 km/h (1 Bft)
28.05.2015 23:50 12,1 C 11,1 C 92 % 15 lf 1013,7 hPa 0,0 l/m 0 min 0 min 0 W/m 2,1 km/h (1 Bft)
28.05.2015 23:52 12,1 C 11,1 C 92 % 15 lf 1013,7 hPa 0,0 l/m 0 min 0 min 0 W/m 0,0 km/h (0 Bft)
28.05.2015 23:54 12,1 C 11,1 C 92 % 15 lf 1013,7 hPa 0,0 l/m 0 min 0 min 0 W/m 2,1 km/h (1 Bft)
28.05.2015 23:56 12,0 C 11,1 C 92 % 15 lf 1013,7 hPa 0,0 l/m 0 min 0 min 0 W/m 0,0 km/h (0 Bft)
28.05.2015 23:58 12,0 C 11,1 C 92 % 15 lf 1013,7 hPa 0,0 l/m 0 min 0 min 0 W/m 0,0 km/h (0 Bft)
_ Min-Zeit 23:56 23:18 12:58 00:00 16:08 - - - - 22:32
Minimum _ 12,0 C 11,1 C 54 % 0 lf 1012,3 hPa - - - - 0,0 km/h (0 Bft)
_ Max-Zeit 15:54 12:48 21:04 16:46 00:00 17:48 07:48 14:18 12:46 13:24
Maximum _ 20,1 C 21,1 C 92 % 15 lf 1017,1 hPa 0,2 l/m 2 min 2 min 1125 W/m 48,1 km/h
W-SW (6 Bft)
Durchschnitt _ 15,0 C 13,9 C 74 % 4 lf 1013,9 hPa #0,8 l/m #4:38 h #2:04 h 246 W/m 17,1 km/h (3 Bft)
© 2015 W. Hausmann